<?xml version="1.0" encoding="UTF-8"?>
<gpx version="1.1" creator="2bulu-scraper" xmlns="http://www.topografix.com/GPX/1/1">
  <metadata><name>乐山沙湾铜街子天梯</name><desc>source: 2bulu.com trackId=77933984; exported 2026-09-01T16:01:55.208Z</desc>
    <bounds minlat="29.191792" minlon="103.644065" maxlat="29.200638" maxlon="103.655202"/>
    <link href="https://www.2bulu.com/track/t-cYI02jnQrGnp%252FR2KBg5Tzw%253D%253D.htm"><text>2bulu 源页面</text></link>
  </metadata>
  <wpt lat="29.200239" lon="103.646574"><ele>496</ele><name></name></wpt>
  <wpt lat="29.199894" lon="103.647175"><ele>495</ele><name></name></wpt>
  <wpt lat="29.199912" lon="103.64764"><ele>505</ele><name></name></wpt>
  <wpt lat="29.200472" lon="103.647791"><ele>523</ele><name></name></wpt>
  <wpt lat="29.200507" lon="103.64849"><ele>556</ele><name></name></wpt>
  <wpt lat="29.200396" lon="103.648946"><ele>587</ele><name></name></wpt>
  <wpt lat="29.200231" lon="103.649224"><ele>618</ele><name></name></wpt>
  <wpt lat="29.199617" lon="103.650215"><ele>614</ele><name></name></wpt>
  <wpt lat="29.19952" lon="103.650513"><ele>616</ele><name></name></wpt>
  <wpt lat="29.194773" lon="103.653413"><ele>668</ele><name></name></wpt>
  <wpt lat="29.194255" lon="103.653953"><ele>670</ele><name></name></wpt>
  <wpt lat="29.193687" lon="103.655026"><ele>675</ele><name></name></wpt>
  <wpt lat="29.198457" lon="103.650462"><ele>619</ele><name></name></wpt>
  <wpt lat="29.198298" lon="103.648714"><ele>646</ele><name></name></wpt>
  <wpt lat="29.197883" lon="103.647973"><ele>653</ele><name></name></wpt>
  <wpt lat="29.197081" lon="103.64781"><ele>659</ele><name></name></wpt>
  <wpt lat="29.196238" lon="103.647316"><ele>658</ele><name></name></wpt>
  <wpt lat="29.192196" lon="103.645102"><ele>666</ele><name></name></wpt>
  <wpt lat="29.192075" lon="103.644902"><ele>663</ele><name></name></wpt>
  <wpt lat="29.191929" lon="103.644802"><ele>615</ele><name></name></wpt>
  <wpt lat="29.19228" lon="103.64486"><ele>593</ele><name></name></wpt>
  <wpt lat="29.192531" lon="103.644843"><ele>576</ele><name></name></wpt>
  <wpt lat="29.192862" lon="103.644721"><ele>557</ele><name></name></wpt>
  <wpt lat="29.193525" lon="103.644539"><ele>533</ele><name></name></wpt>
  <wpt lat="29.193609" lon="103.64417"><ele>510</ele><name></name></wpt>
  <wpt lat="29.199093" lon="103.646187"><ele>502</ele><name></name></wpt>
  <trk><name>乐山沙湾铜街子天梯</name>
      <trkseg>
        <trkpt lat="29.200239" lon="103.646574"><ele>496.21875</ele><time>2026-01-16T20:47:51.000Z</time></trkpt>
        <trkpt lat="29.200209" lon="103.646617"><ele>492.94995</ele><time>2026-01-16T20:48:09.000Z</time></trkpt>
        <trkpt lat="29.2002" lon="103.646664"><ele>491.84808</ele><time>2026-01-16T20:48:15.000Z</time></trkpt>
        <trkpt lat="29.200192" lon="103.646718"><ele>492.61682</ele><time>2026-01-16T20:48:19.000Z</time></trkpt>
        <trkpt lat="29.200163" lon="103.646775"><ele>492.07437</ele><time>2026-01-16T20:48:24.000Z</time></trkpt>
        <trkpt lat="29.200132" lon="103.64683"><ele>489.9089</ele><time>2026-01-16T20:48:28.000Z</time></trkpt>
        <trkpt lat="29.20011" lon="103.646887"><ele>488.72528</ele><time>2026-01-16T20:48:33.000Z</time></trkpt>
        <trkpt lat="29.200085" lon="103.646934"><ele>487.87848</ele><time>2026-01-16T20:48:38.000Z</time></trkpt>
        <trkpt lat="29.200054" lon="103.646976"><ele>488.91498</ele><time>2026-01-16T20:48:45.000Z</time></trkpt>
        <trkpt lat="29.20001" lon="103.647003"><ele>490.5367</ele><time>2026-01-16T20:48:55.000Z</time></trkpt>
        <trkpt lat="29.19998" lon="103.647038"><ele>491.30286</ele><time>2026-01-16T20:49:03.000Z</time></trkpt>
        <trkpt lat="29.199954" lon="103.647081"><ele>492.5911</ele><time>2026-01-16T20:49:11.000Z</time></trkpt>
        <trkpt lat="29.199915" lon="103.647116"><ele>492.98688</ele><time>2026-01-16T20:49:20.000Z</time></trkpt>
        <trkpt lat="29.199894" lon="103.647175"><ele>495.14035</ele><time>2026-01-16T20:49:53.000Z</time></trkpt>
        <trkpt lat="29.199889" lon="103.647226"><ele>496.52362</ele><time>2026-01-16T20:50:01.000Z</time></trkpt>
        <trkpt lat="29.199884" lon="103.647285"><ele>496.13202</ele><time>2026-01-16T20:50:08.000Z</time></trkpt>
        <trkpt lat="29.199879" lon="103.647347"><ele>496.50314</ele><time>2026-01-16T20:50:16.000Z</time></trkpt>
        <trkpt lat="29.199902" lon="103.647398"><ele>496.5543</ele><time>2026-01-16T20:50:27.000Z</time></trkpt>
        <trkpt lat="29.199938" lon="103.647433"><ele>499.2793</ele><time>2026-01-16T20:50:37.000Z</time></trkpt>
        <trkpt lat="29.199916" lon="103.64748"><ele>503.81555</ele><time>2026-01-16T20:50:48.000Z</time></trkpt>
        <trkpt lat="29.199922" lon="103.647532"><ele>504.80853</ele><time>2026-01-16T20:50:59.000Z</time></trkpt>
        <trkpt lat="29.199918" lon="103.647586"><ele>502.61728</ele><time>2026-01-16T20:51:10.000Z</time></trkpt>
        <trkpt lat="29.199912" lon="103.647639"><ele>504.58682</ele><time>2026-01-16T20:51:26.000Z</time></trkpt>
        <trkpt lat="29.199895" lon="103.647683"><ele>507.0416</ele><time>2026-01-16T20:51:32.000Z</time></trkpt>
        <trkpt lat="29.1999" lon="103.647743"><ele>507.2414</ele><time>2026-01-16T20:51:40.000Z</time></trkpt>
        <trkpt lat="29.199901" lon="103.647806"><ele>504.5198</ele><time>2026-01-16T20:51:51.000Z</time></trkpt>
        <trkpt lat="29.199903" lon="103.647859"><ele>503.83124</ele><time>2026-01-16T20:52:04.000Z</time></trkpt>
        <trkpt lat="29.199891" lon="103.647914"><ele>504.5844</ele><time>2026-01-16T20:52:12.000Z</time></trkpt>
        <trkpt lat="29.199882" lon="103.647972"><ele>506.33762</ele><time>2026-01-16T20:52:18.000Z</time></trkpt>
        <trkpt lat="29.199878" lon="103.648033"><ele>510.07297</ele><time>2026-01-16T20:52:28.000Z</time></trkpt>
        <trkpt lat="29.199869" lon="103.64809"><ele>512.6074</ele><time>2026-01-16T20:52:45.000Z</time></trkpt>
        <trkpt lat="29.199857" lon="103.648134"><ele>512.0756</ele><time>2026-01-16T20:52:52.000Z</time></trkpt>
        <trkpt lat="29.199853" lon="103.64819"><ele>511.6906</ele><time>2026-01-16T20:53:01.000Z</time></trkpt>
        <trkpt lat="29.199842" lon="103.648245"><ele>514.40326</ele><time>2026-01-16T20:53:21.000Z</time></trkpt>
        <trkpt lat="29.199878" lon="103.648225"><ele>513.4256</ele><time>2026-01-16T20:53:29.000Z</time></trkpt>
        <trkpt lat="29.199915" lon="103.648193"><ele>511.73108</ele><time>2026-01-16T20:53:35.000Z</time></trkpt>
        <trkpt lat="29.199953" lon="103.648148"><ele>511.26654</ele><time>2026-01-16T20:53:43.000Z</time></trkpt>
        <trkpt lat="29.199992" lon="103.648118"><ele>511.5348</ele><time>2026-01-16T20:53:50.000Z</time></trkpt>
        <trkpt lat="29.200027" lon="103.648075"><ele>512.5827</ele><time>2026-01-16T20:54:02.000Z</time></trkpt>
        <trkpt lat="29.200051" lon="103.648027"><ele>513.98956</ele><time>2026-01-16T20:54:12.000Z</time></trkpt>
        <trkpt lat="29.20008" lon="103.647984"><ele>514.21857</ele><time>2026-01-16T20:54:20.000Z</time></trkpt>
        <trkpt lat="29.200102" lon="103.647934"><ele>514.64923</ele><time>2026-01-16T20:54:26.000Z</time></trkpt>
        <trkpt lat="29.200137" lon="103.647894"><ele>515.00116</ele><time>2026-01-16T20:54:32.000Z</time></trkpt>
        <trkpt lat="29.200187" lon="103.647871"><ele>516.3739</ele><time>2026-01-16T20:54:45.000Z</time></trkpt>
        <trkpt lat="29.20023" lon="103.647855"><ele>517.5444</ele><time>2026-01-16T20:54:52.000Z</time></trkpt>
        <trkpt lat="29.20028" lon="103.647827"><ele>521.4107</ele><time>2026-01-16T20:55:08.000Z</time></trkpt>
        <trkpt lat="29.20032" lon="103.647815"><ele>522.52</ele><time>2026-01-16T20:55:16.000Z</time></trkpt>
        <trkpt lat="29.200367" lon="103.647805"><ele>523.33844</ele><time>2026-01-16T20:55:23.000Z</time></trkpt>
        <trkpt lat="29.20042" lon="103.647798"><ele>523.05963</ele><time>2026-01-16T20:55:31.000Z</time></trkpt>
        <trkpt lat="29.200469" lon="103.647792"><ele>523.2771</ele><time>2026-01-16T20:55:38.000Z</time></trkpt>
        <trkpt lat="29.200524" lon="103.647809"><ele>524.89594</ele><time>2026-01-16T20:55:52.000Z</time></trkpt>
        <trkpt lat="29.200544" lon="103.647857"><ele>526.1119</ele><time>2026-01-16T20:56:04.000Z</time></trkpt>
        <trkpt lat="29.200551" lon="103.647906"><ele>527.3315</ele><time>2026-01-16T20:56:10.000Z</time></trkpt>
        <trkpt lat="29.200566" lon="103.64796"><ele>528.90314</ele><time>2026-01-16T20:56:18.000Z</time></trkpt>
        <trkpt lat="29.200594" lon="103.648004"><ele>530.5435</ele><time>2026-01-16T20:56:29.000Z</time></trkpt>
        <trkpt lat="29.200579" lon="103.648052"><ele>531.6324</ele><time>2026-01-16T20:56:47.000Z</time></trkpt>
        <trkpt lat="29.200591" lon="103.64811"><ele>533.9841</ele><time>2026-01-16T20:57:41.000Z</time></trkpt>
        <trkpt lat="29.200638" lon="103.648105"><ele>537.41974</ele><time>2026-01-16T20:59:08.000Z</time></trkpt>
        <trkpt lat="29.20061" lon="103.648143"><ele>536.6695</ele><time>2026-01-16T20:59:19.000Z</time></trkpt>
        <trkpt lat="29.200607" lon="103.648198"><ele>537.565</ele><time>2026-01-16T20:59:33.000Z</time></trkpt>
        <trkpt lat="29.200586" lon="103.648251"><ele>540.111</ele><time>2026-01-16T20:59:45.000Z</time></trkpt>
        <trkpt lat="29.200573" lon="103.648303"><ele>542.6788</ele><time>2026-01-16T20:59:58.000Z</time></trkpt>
        <trkpt lat="29.20058" lon="103.648356"><ele>543.6449</ele><time>2026-01-16T21:00:13.000Z</time></trkpt>
        <trkpt lat="29.200546" lon="103.648395"><ele>547.899</ele><time>2026-01-16T21:00:28.000Z</time></trkpt>
        <trkpt lat="29.200519" lon="103.648434"><ele>551.5096</ele><time>2026-01-16T21:00:36.000Z</time></trkpt>
        <trkpt lat="29.200506" lon="103.648489"><ele>556.2541</ele><time>2026-01-16T21:00:49.000Z</time></trkpt>
        <trkpt lat="29.200485" lon="103.648529"><ele>557.27606</ele><time>2026-01-16T21:00:56.000Z</time></trkpt>
        <trkpt lat="29.200446" lon="103.648577"><ele>559.0979</ele><time>2026-01-16T21:01:20.000Z</time></trkpt>
        <trkpt lat="29.2004" lon="103.648567"><ele>567.51843</ele><time>2026-01-16T21:02:24.000Z</time></trkpt>
        <trkpt lat="29.200415" lon="103.648611"><ele>567.86786</ele><time>2026-01-16T21:02:33.000Z</time></trkpt>
        <trkpt lat="29.200404" lon="103.648666"><ele>568.0848</ele><time>2026-01-16T21:02:48.000Z</time></trkpt>
        <trkpt lat="29.200371" lon="103.648708"><ele>572.05664</ele><time>2026-01-16T21:03:37.000Z</time></trkpt>
        <trkpt lat="29.200341" lon="103.648751"><ele>573.51434</ele><time>2026-01-16T21:03:49.000Z</time></trkpt>
        <trkpt lat="29.200308" lon="103.648787"><ele>574.1707</ele><time>2026-01-16T21:03:54.000Z</time></trkpt>
        <trkpt lat="29.200326" lon="103.648826"><ele>576.4018</ele><time>2026-01-16T21:04:01.000Z</time></trkpt>
        <trkpt lat="29.200303" lon="103.648854"><ele>578.51135</ele><time>2026-01-16T21:04:07.000Z</time></trkpt>
        <trkpt lat="29.200263" lon="103.648892"><ele>578.756</ele><time>2026-01-16T21:04:28.000Z</time></trkpt>
        <trkpt lat="29.200312" lon="103.648897"><ele>577.7119</ele><time>2026-01-16T21:04:43.000Z</time></trkpt>
        <trkpt lat="29.200365" lon="103.648915"><ele>578.07294</ele><time>2026-01-16T21:04:52.000Z</time></trkpt>
        <trkpt lat="29.200393" lon="103.648886"><ele>578.6199</ele><time>2026-01-16T21:04:57.000Z</time></trkpt>
        <trkpt lat="29.20044" lon="103.648886"><ele>582.5141</ele><time>2026-01-16T21:05:14.000Z</time></trkpt>
        <trkpt lat="29.200489" lon="103.648957"><ele>588.9986</ele><time>2026-01-16T21:05:33.000Z</time></trkpt>
        <trkpt lat="29.200455" lon="103.648951"><ele>590.4806</ele><time>2026-01-16T21:05:41.000Z</time></trkpt>
        <trkpt lat="29.200409" lon="103.648905"><ele>593.62683</ele><time>2026-01-16T21:06:01.000Z</time></trkpt>
        <trkpt lat="29.200399" lon="103.64894"><ele>594.67444</ele><time>2026-01-16T21:06:04.000Z</time></trkpt>
        <trkpt lat="29.200361" lon="103.648943"><ele>595.60767</ele><time>2026-01-16T21:06:08.000Z</time></trkpt>
        <trkpt lat="29.200374" lon="103.648915"><ele>594.07764</ele><time>2026-01-16T21:06:13.000Z</time></trkpt>
        <trkpt lat="29.200416" lon="103.648945"><ele>590.20624</ele><time>2026-01-16T21:06:30.000Z</time></trkpt>
        <trkpt lat="29.200429" lon="103.649"><ele>587.4204</ele><time>2026-01-16T21:06:47.000Z</time></trkpt>
        <trkpt lat="29.200426" lon="103.648954"><ele>587.0413</ele><time>2026-01-16T21:06:52.000Z</time></trkpt>
        <trkpt lat="29.20037" lon="103.648877"><ele>587.6211</ele><time>2026-01-16T21:07:04.000Z</time></trkpt>
        <trkpt lat="29.200411" lon="103.648898"><ele>590.4332</ele><time>2026-01-16T21:07:38.000Z</time></trkpt>
        <trkpt lat="29.200439" lon="103.648974"><ele>587.21686</ele><time>2026-01-16T21:07:55.000Z</time></trkpt>
        <trkpt lat="29.200396" lon="103.648946"><ele>587.11676</ele><time>2026-01-16T21:08:51.000Z</time></trkpt>
        <trkpt lat="29.200386" lon="103.648891"><ele>588.452</ele><time>2026-01-16T21:09:12.000Z</time></trkpt>
        <trkpt lat="29.200395" lon="103.648937"><ele>586.92865</ele><time>2026-01-16T21:09:22.000Z</time></trkpt>
        <trkpt lat="29.200358" lon="103.648971"><ele>592.7135</ele><time>2026-01-16T21:10:15.000Z</time></trkpt>
        <trkpt lat="29.200326" lon="103.649018"><ele>598.0902</ele><time>2026-01-16T21:10:58.000Z</time></trkpt>
        <trkpt lat="29.200288" lon="103.649011"><ele>604.08624</ele><time>2026-01-16T21:11:23.000Z</time></trkpt>
        <trkpt lat="29.200303" lon="103.649064"><ele>606.0496</ele><time>2026-01-16T21:11:40.000Z</time></trkpt>
        <trkpt lat="29.200291" lon="103.649119"><ele>609.0422</ele><time>2026-01-16T21:11:51.000Z</time></trkpt>
        <trkpt lat="29.200241" lon="103.649114"><ele>610.1694</ele><time>2026-01-16T21:12:03.000Z</time></trkpt>
        <trkpt lat="29.200241" lon="103.649161"><ele>613.5051</ele><time>2026-01-16T21:12:13.000Z</time></trkpt>
        <trkpt lat="29.20024" lon="103.649115"><ele>610.9269</ele><time>2026-01-16T21:12:42.000Z</time></trkpt>
        <trkpt lat="29.200272" lon="103.649147"><ele>610.5747</ele><time>2026-01-16T21:12:58.000Z</time></trkpt>
        <trkpt lat="29.200301" lon="103.649193"><ele>611.01556</ele><time>2026-01-16T21:13:16.000Z</time></trkpt>
        <trkpt lat="29.200282" lon="103.649128"><ele>611.66064</ele><time>2026-01-16T21:13:35.000Z</time></trkpt>
        <trkpt lat="29.200233" lon="103.649129"><ele>611.1435</ele><time>2026-01-16T21:13:47.000Z</time></trkpt>
        <trkpt lat="29.200262" lon="103.649183"><ele>607.84863</ele><time>2026-01-16T21:14:12.000Z</time></trkpt>
        <trkpt lat="29.200279" lon="103.649133"><ele>607.9239</ele><time>2026-01-16T21:14:36.000Z</time></trkpt>
        <trkpt lat="29.200231" lon="103.649124"><ele>607.5746</ele><time>2026-01-16T21:15:16.000Z</time></trkpt>
        <trkpt lat="29.200264" lon="103.649162"><ele>606.9012</ele><time>2026-01-16T21:15:24.000Z</time></trkpt>
        <trkpt lat="29.200222" lon="103.649163"><ele>607.2254</ele><time>2026-01-16T21:15:51.000Z</time></trkpt>
        <trkpt lat="29.200275" lon="103.649217"><ele>607.41376</ele><time>2026-01-16T21:15:59.000Z</time></trkpt>
        <trkpt lat="29.200302" lon="103.649246"><ele>607.09546</ele><time>2026-01-16T21:16:00.000Z</time></trkpt>
        <trkpt lat="29.200304" lon="103.649253"><ele>606.6077</ele><time>2026-01-16T21:16:02.000Z</time></trkpt>
        <trkpt lat="29.200291" lon="103.64919"><ele>607.6239</ele><time>2026-01-16T21:16:24.000Z</time></trkpt>
        <trkpt lat="29.200286" lon="103.649186"><ele>608.1257</ele><time>2026-01-16T21:16:25.000Z</time></trkpt>
        <trkpt lat="29.200248" lon="103.649202"><ele>610.0256</ele><time>2026-01-16T21:16:31.000Z</time></trkpt>
        <trkpt lat="29.200242" lon="103.649173"><ele>616.5623</ele><time>2026-01-16T21:17:03.000Z</time></trkpt>
        <trkpt lat="29.200236" lon="103.649217"><ele>617.8238</ele><time>2026-01-16T21:17:13.000Z</time></trkpt>
        <trkpt lat="29.200232" lon="103.649276"><ele>617.6753</ele><time>2026-01-16T21:17:26.000Z</time></trkpt>
        <trkpt lat="29.200203" lon="103.649333"><ele>617.99445</ele><time>2026-01-16T21:17:35.000Z</time></trkpt>
        <trkpt lat="29.200186" lon="103.649384"><ele>616.4225</ele><time>2026-01-16T21:17:40.000Z</time></trkpt>
        <trkpt lat="29.200216" lon="103.64943"><ele>614.9969</ele><time>2026-01-16T21:17:49.000Z</time></trkpt>
        <trkpt lat="29.200219" lon="103.649484"><ele>614.3998</ele><time>2026-01-16T21:17:58.000Z</time></trkpt>
        <trkpt lat="29.20017" lon="103.649504"><ele>612.33093</ele><time>2026-01-16T21:18:06.000Z</time></trkpt>
        <trkpt lat="29.200117" lon="103.649504"><ele>612.24817</ele><time>2026-01-16T21:18:18.000Z</time></trkpt>
        <trkpt lat="29.200074" lon="103.649509"><ele>612.9627</ele><time>2026-01-16T21:18:24.000Z</time></trkpt>
        <trkpt lat="29.200025" lon="103.649529"><ele>613.29083</ele><time>2026-01-16T21:18:30.000Z</time></trkpt>
        <trkpt lat="29.199984" lon="103.649562"><ele>612.7879</ele><time>2026-01-16T21:18:37.000Z</time></trkpt>
        <trkpt lat="29.199944" lon="103.649587"><ele>612.423</ele><time>2026-01-16T21:18:44.000Z</time></trkpt>
        <trkpt lat="29.199901" lon="103.649609"><ele>612.06305</ele><time>2026-01-16T21:18:50.000Z</time></trkpt>
        <trkpt lat="29.199856" lon="103.649624"><ele>611.62634</ele><time>2026-01-16T21:18:55.000Z</time></trkpt>
        <trkpt lat="29.199818" lon="103.649657"><ele>611.2529</ele><time>2026-01-16T21:19:01.000Z</time></trkpt>
        <trkpt lat="29.199802" lon="103.649705"><ele>611.4403</ele><time>2026-01-16T21:19:06.000Z</time></trkpt>
        <trkpt lat="29.199781" lon="103.649755"><ele>612.0868</ele><time>2026-01-16T21:19:12.000Z</time></trkpt>
        <trkpt lat="29.199753" lon="103.649796"><ele>612.45306</ele><time>2026-01-16T21:19:16.000Z</time></trkpt>
        <trkpt lat="29.199711" lon="103.649842"><ele>615.0513</ele><time>2026-01-16T21:19:27.000Z</time></trkpt>
        <trkpt lat="29.199684" lon="103.649891"><ele>616.0364</ele><time>2026-01-16T21:20:15.000Z</time></trkpt>
        <trkpt lat="29.19967" lon="103.649934"><ele>615.48413</ele><time>2026-01-16T21:20:21.000Z</time></trkpt>
        <trkpt lat="29.199649" lon="103.649994"><ele>615.6951</ele><time>2026-01-16T21:20:31.000Z</time></trkpt>
        <trkpt lat="29.199634" lon="103.65004"><ele>614.5448</ele><time>2026-01-16T21:20:36.000Z</time></trkpt>
        <trkpt lat="29.199629" lon="103.650102"><ele>612.0552</ele><time>2026-01-16T21:20:44.000Z</time></trkpt>
        <trkpt lat="29.199627" lon="103.650154"><ele>611.73785</ele><time>2026-01-16T21:20:49.000Z</time></trkpt>
        <trkpt lat="29.199618" lon="103.650213"><ele>613.13477</ele><time>2026-01-16T21:20:56.000Z</time></trkpt>
        <trkpt lat="29.199604" lon="103.650264"><ele>615.16907</ele><time>2026-01-16T21:21:03.000Z</time></trkpt>
        <trkpt lat="29.199594" lon="103.650318"><ele>615.26965</ele><time>2026-01-16T21:21:12.000Z</time></trkpt>
        <trkpt lat="29.199573" lon="103.650366"><ele>614.7359</ele><time>2026-01-16T21:23:08.000Z</time></trkpt>
        <trkpt lat="29.199566" lon="103.650415"><ele>615.78674</ele><time>2026-01-16T21:23:23.000Z</time></trkpt>
        <trkpt lat="29.199548" lon="103.65047"><ele>616.82837</ele><time>2026-01-16T21:23:41.000Z</time></trkpt>
        <trkpt lat="29.199523" lon="103.650507"><ele>616.07587</ele><time>2026-01-16T21:23:49.000Z</time></trkpt>
        <trkpt lat="29.199487" lon="103.650551"><ele>615.40063</ele><time>2026-01-16T21:24:05.000Z</time></trkpt>
        <trkpt lat="29.199451" lon="103.650575"><ele>614.5702</ele><time>2026-01-16T21:24:10.000Z</time></trkpt>
        <trkpt lat="29.199413" lon="103.650618"><ele>613.67065</ele><time>2026-01-16T21:24:15.000Z</time></trkpt>
        <trkpt lat="29.199367" lon="103.65066"><ele>613.72473</ele><time>2026-01-16T21:24:22.000Z</time></trkpt>
        <trkpt lat="29.199319" lon="103.650703"><ele>612.56555</ele><time>2026-01-16T21:24:39.000Z</time></trkpt>
        <trkpt lat="29.199304" lon="103.650738"><ele>611.92194</ele><time>2026-01-16T21:24:44.000Z</time></trkpt>
        <trkpt lat="29.199273" lon="103.650785"><ele>611.13074</ele><time>2026-01-16T21:24:50.000Z</time></trkpt>
        <trkpt lat="29.199235" lon="103.650824"><ele>610.8887</ele><time>2026-01-16T21:24:55.000Z</time></trkpt>
        <trkpt lat="29.199191" lon="103.650865"><ele>609.44507</ele><time>2026-01-16T21:25:07.000Z</time></trkpt>
        <trkpt lat="29.199167" lon="103.650909"><ele>608.47363</ele><time>2026-01-16T21:25:13.000Z</time></trkpt>
        <trkpt lat="29.199136" lon="103.650962"><ele>607.2945</ele><time>2026-01-16T21:25:19.000Z</time></trkpt>
        <trkpt lat="29.199111" lon="103.651009"><ele>606.5076</ele><time>2026-01-16T21:25:24.000Z</time></trkpt>
        <trkpt lat="29.199078" lon="103.651048"><ele>610.73267</ele><time>2026-01-16T21:25:29.000Z</time></trkpt>
        <trkpt lat="29.199038" lon="103.65109"><ele>612.7979</ele><time>2026-01-16T21:25:36.000Z</time></trkpt>
        <trkpt lat="29.199006" lon="103.651129"><ele>612.5981</ele><time>2026-01-16T21:25:41.000Z</time></trkpt>
        <trkpt lat="29.198958" lon="103.651158"><ele>611.46924</ele><time>2026-01-16T21:25:47.000Z</time></trkpt>
        <trkpt lat="29.19891" lon="103.651188"><ele>610.5724</ele><time>2026-01-16T21:25:53.000Z</time></trkpt>
        <trkpt lat="29.198862" lon="103.651206"><ele>609.9779</ele><time>2026-01-16T21:25:59.000Z</time></trkpt>
        <trkpt lat="29.198846" lon="103.65115"><ele>609.5699</ele><time>2026-01-16T21:26:12.000Z</time></trkpt>
        <trkpt lat="29.198829" lon="103.651111"><ele>609.7784</ele><time>2026-01-16T21:26:16.000Z</time></trkpt>
        <trkpt lat="29.198787" lon="103.651088"><ele>608.7767</ele><time>2026-01-16T21:26:21.000Z</time></trkpt>
        <trkpt lat="29.198732" lon="103.651084"><ele>607.66907</ele><time>2026-01-16T21:26:26.000Z</time></trkpt>
        <trkpt lat="29.198675" lon="103.651094"><ele>607.085</ele><time>2026-01-16T21:26:32.000Z</time></trkpt>
        <trkpt lat="29.198619" lon="103.651106"><ele>606.3643</ele><time>2026-01-16T21:26:38.000Z</time></trkpt>
        <trkpt lat="29.198569" lon="103.651116"><ele>605.55927</ele><time>2026-01-16T21:26:43.000Z</time></trkpt>
        <trkpt lat="29.198518" lon="103.651113"><ele>604.889</ele><time>2026-01-16T21:26:48.000Z</time></trkpt>
        <trkpt lat="29.198471" lon="103.651083"><ele>604.50104</ele><time>2026-01-16T21:26:54.000Z</time></trkpt>
        <trkpt lat="29.198451" lon="103.651028"><ele>605.6369</ele><time>2026-01-16T21:27:02.000Z</time></trkpt>
        <trkpt lat="29.198449" lon="103.650971"><ele>606.292</ele><time>2026-01-16T21:27:10.000Z</time></trkpt>
        <trkpt lat="29.198457" lon="103.650919"><ele>607.7997</ele><time>2026-01-16T21:27:17.000Z</time></trkpt>
        <trkpt lat="29.198458" lon="103.650866"><ele>609.2633</ele><time>2026-01-16T21:27:23.000Z</time></trkpt>
        <trkpt lat="29.198436" lon="103.650814"><ele>610.17065</ele><time>2026-01-16T21:27:48.000Z</time></trkpt>
        <trkpt lat="29.198475" lon="103.650777"><ele>610.9291</ele><time>2026-01-16T21:28:49.000Z</time></trkpt>
        <trkpt lat="29.198482" lon="103.650729"><ele>611.4444</ele><time>2026-01-16T21:28:56.000Z</time></trkpt>
        <trkpt lat="29.198474" lon="103.65067"><ele>612.3103</ele><time>2026-01-16T21:29:04.000Z</time></trkpt>
        <trkpt lat="29.198475" lon="103.65062"><ele>613.847</ele><time>2026-01-16T21:29:10.000Z</time></trkpt>
        <trkpt lat="29.198442" lon="103.650658"><ele>614.22253</ele><time>2026-01-16T21:29:45.000Z</time></trkpt>
        <trkpt lat="29.19846" lon="103.650707"><ele>614.24426</ele><time>2026-01-16T21:29:52.000Z</time></trkpt>
        <trkpt lat="29.19847" lon="103.650761"><ele>613.34174</ele><time>2026-01-16T21:30:04.000Z</time></trkpt>
        <trkpt lat="29.198461" lon="103.650811"><ele>612.89526</ele><time>2026-01-16T21:30:10.000Z</time></trkpt>
        <trkpt lat="29.19842" lon="103.650839"><ele>611.6363</ele><time>2026-01-16T21:30:18.000Z</time></trkpt>
        <trkpt lat="29.198381" lon="103.650804"><ele>612.06586</ele><time>2026-01-16T21:30:25.000Z</time></trkpt>
        <trkpt lat="29.198347" lon="103.650835"><ele>612.59753</ele><time>2026-01-16T21:31:36.000Z</time></trkpt>
        <trkpt lat="29.19832" lon="103.650859"><ele>612.60223</ele><time>2026-01-16T21:31:41.000Z</time></trkpt>
        <trkpt lat="29.198266" lon="103.650888"><ele>612.4942</ele><time>2026-01-16T21:31:47.000Z</time></trkpt>
        <trkpt lat="29.198224" lon="103.650915"><ele>613.0793</ele><time>2026-01-16T21:31:51.000Z</time></trkpt>
        <trkpt lat="29.198173" lon="103.650949"><ele>614.42194</ele><time>2026-01-16T21:32:14.000Z</time></trkpt>
        <trkpt lat="29.198149" lon="103.650977"><ele>614.5738</ele><time>2026-01-16T21:32:21.000Z</time></trkpt>
        <trkpt lat="29.198109" lon="103.651024"><ele>614.89856</ele><time>2026-01-16T21:32:35.000Z</time></trkpt>
        <trkpt lat="29.198066" lon="103.651056"><ele>615.00323</ele><time>2026-01-16T21:33:01.000Z</time></trkpt>
        <trkpt lat="29.198024" lon="103.65108"><ele>616.071</ele><time>2026-01-16T21:33:12.000Z</time></trkpt>
        <trkpt lat="29.197979" lon="103.651101"><ele>616.93567</ele><time>2026-01-16T21:33:20.000Z</time></trkpt>
        <trkpt lat="29.197939" lon="103.651135"><ele>617.1828</ele><time>2026-01-16T21:33:41.000Z</time></trkpt>
        <trkpt lat="29.197907" lon="103.651164"><ele>617.9538</ele><time>2026-01-16T21:33:47.000Z</time></trkpt>
        <trkpt lat="29.197866" lon="103.651201"><ele>618.91455</ele><time>2026-01-16T21:33:53.000Z</time></trkpt>
        <trkpt lat="29.197834" lon="103.651242"><ele>619.3394</ele><time>2026-01-16T21:33:58.000Z</time></trkpt>
        <trkpt lat="29.197798" lon="103.65128"><ele>619.8015</ele><time>2026-01-16T21:34:04.000Z</time></trkpt>
        <trkpt lat="29.197754" lon="103.651317"><ele>620.17816</ele><time>2026-01-16T21:34:10.000Z</time></trkpt>
        <trkpt lat="29.197711" lon="103.651343"><ele>620.6571</ele><time>2026-01-16T21:34:16.000Z</time></trkpt>
        <trkpt lat="29.197671" lon="103.651379"><ele>621.45734</ele><time>2026-01-16T21:34:23.000Z</time></trkpt>
        <trkpt lat="29.197628" lon="103.651395"><ele>621.9571</ele><time>2026-01-16T21:34:29.000Z</time></trkpt>
        <trkpt lat="29.197584" lon="103.651422"><ele>623.63574</ele><time>2026-01-16T21:34:35.000Z</time></trkpt>
        <trkpt lat="29.19754" lon="103.651449"><ele>624.99634</ele><time>2026-01-16T21:34:42.000Z</time></trkpt>
        <trkpt lat="29.197501" lon="103.651478"><ele>626.20465</ele><time>2026-01-16T21:34:48.000Z</time></trkpt>
        <trkpt lat="29.197463" lon="103.651513"><ele>626.8631</ele><time>2026-01-16T21:34:53.000Z</time></trkpt>
        <trkpt lat="29.197417" lon="103.65154"><ele>627.60046</ele><time>2026-01-16T21:34:59.000Z</time></trkpt>
        <trkpt lat="29.197379" lon="103.651568"><ele>628.2882</ele><time>2026-01-16T21:35:04.000Z</time></trkpt>
        <trkpt lat="29.197338" lon="103.6516"><ele>628.9783</ele><time>2026-01-16T21:35:09.000Z</time></trkpt>
        <trkpt lat="29.197283" lon="103.65161"><ele>630.1131</ele><time>2026-01-16T21:35:17.000Z</time></trkpt>
        <trkpt lat="29.197232" lon="103.65162"><ele>631.2619</ele><time>2026-01-16T21:35:24.000Z</time></trkpt>
        <trkpt lat="29.197182" lon="103.651637"><ele>631.9778</ele><time>2026-01-16T21:35:30.000Z</time></trkpt>
        <trkpt lat="29.197145" lon="103.65167"><ele>632.8277</ele><time>2026-01-16T21:35:36.000Z</time></trkpt>
        <trkpt lat="29.19711" lon="103.651721"><ele>633.9487</ele><time>2026-01-16T21:35:46.000Z</time></trkpt>
        <trkpt lat="29.197077" lon="103.651756"><ele>634.4348</ele><time>2026-01-16T21:35:54.000Z</time></trkpt>
        <trkpt lat="29.197037" lon="103.651778"><ele>635.3512</ele><time>2026-01-16T21:36:01.000Z</time></trkpt>
        <trkpt lat="29.196995" lon="103.651813"><ele>636.83636</ele><time>2026-01-16T21:36:19.000Z</time></trkpt>
        <trkpt lat="29.196974" lon="103.651857"><ele>637.72504</ele><time>2026-01-16T21:36:29.000Z</time></trkpt>
        <trkpt lat="29.196961" lon="103.651912"><ele>637.6802</ele><time>2026-01-16T21:36:53.000Z</time></trkpt>
        <trkpt lat="29.19692" lon="103.651933"><ele>637.46735</ele><time>2026-01-16T21:36:59.000Z</time></trkpt>
        <trkpt lat="29.196864" lon="103.651948"><ele>636.0933</ele><time>2026-01-16T21:37:33.000Z</time></trkpt>
        <trkpt lat="29.196835" lon="103.651979"><ele>636.7446</ele><time>2026-01-16T21:37:37.000Z</time></trkpt>
        <trkpt lat="29.196802" lon="103.652033"><ele>637.2751</ele><time>2026-01-16T21:37:42.000Z</time></trkpt>
        <trkpt lat="29.196758" lon="103.652095"><ele>638.00543</ele><time>2026-01-16T21:37:56.000Z</time></trkpt>
        <trkpt lat="29.196732" lon="103.652129"><ele>638.93445</ele><time>2026-01-16T21:38:02.000Z</time></trkpt>
        <trkpt lat="29.19671" lon="103.652188"><ele>639.89966</ele><time>2026-01-16T21:38:13.000Z</time></trkpt>
        <trkpt lat="29.196688" lon="103.652241"><ele>640.7037</ele><time>2026-01-16T21:38:26.000Z</time></trkpt>
        <trkpt lat="29.196653" lon="103.652274"><ele>642.0019</ele><time>2026-01-16T21:38:36.000Z</time></trkpt>
        <trkpt lat="29.196619" lon="103.652317"><ele>642.2804</ele><time>2026-01-16T21:38:44.000Z</time></trkpt>
        <trkpt lat="29.196594" lon="103.652366"><ele>643.25226</ele><time>2026-01-16T21:38:51.000Z</time></trkpt>
        <trkpt lat="29.196559" lon="103.652409"><ele>644.76715</ele><time>2026-01-16T21:38:59.000Z</time></trkpt>
        <trkpt lat="29.196516" lon="103.652443"><ele>646.7513</ele><time>2026-01-16T21:39:24.000Z</time></trkpt>
        <trkpt lat="29.196484" lon="103.652471"><ele>647.9372</ele><time>2026-01-16T21:39:33.000Z</time></trkpt>
        <trkpt lat="29.196438" lon="103.652496"><ele>649.5531</ele><time>2026-01-16T21:39:41.000Z</time></trkpt>
        <trkpt lat="29.196399" lon="103.652518"><ele>650.94617</ele><time>2026-01-16T21:39:46.000Z</time></trkpt>
        <trkpt lat="29.196359" lon="103.652558"><ele>652.49725</ele><time>2026-01-16T21:39:53.000Z</time></trkpt>
        <trkpt lat="29.196311" lon="103.65258"><ele>653.0079</ele><time>2026-01-16T21:40:04.000Z</time></trkpt>
        <trkpt lat="29.196266" lon="103.652598"><ele>653.86005</ele><time>2026-01-16T21:40:14.000Z</time></trkpt>
        <trkpt lat="29.196219" lon="103.652606"><ele>654.5723</ele><time>2026-01-16T21:40:25.000Z</time></trkpt>
        <trkpt lat="29.196179" lon="103.652627"><ele>655.5552</ele><time>2026-01-16T21:40:32.000Z</time></trkpt>
        <trkpt lat="29.196126" lon="103.652641"><ele>656.9565</ele><time>2026-01-16T21:40:40.000Z</time></trkpt>
        <trkpt lat="29.196081" lon="103.652636"><ele>657.9698</ele><time>2026-01-16T21:40:47.000Z</time></trkpt>
        <trkpt lat="29.196035" lon="103.652615"><ele>658.87646</ele><time>2026-01-16T21:40:55.000Z</time></trkpt>
        <trkpt lat="29.19599" lon="103.652618"><ele>659.92365</ele><time>2026-01-16T21:41:03.000Z</time></trkpt>
        <trkpt lat="29.195939" lon="103.652632"><ele>661.12897</ele><time>2026-01-16T21:41:16.000Z</time></trkpt>
        <trkpt lat="29.195896" lon="103.652634"><ele>661.3957</ele><time>2026-01-16T21:41:22.000Z</time></trkpt>
        <trkpt lat="29.195839" lon="103.65264"><ele>661.89606</ele><time>2026-01-16T21:41:30.000Z</time></trkpt>
        <trkpt lat="29.195791" lon="103.652648"><ele>662.9432</ele><time>2026-01-16T21:41:36.000Z</time></trkpt>
        <trkpt lat="29.19574" lon="103.652669"><ele>663.97925</ele><time>2026-01-16T21:41:43.000Z</time></trkpt>
        <trkpt lat="29.195692" lon="103.652667"><ele>663.1469</ele><time>2026-01-16T21:43:17.000Z</time></trkpt>
        <trkpt lat="29.195665" lon="103.652717"><ele>664.3875</ele><time>2026-01-16T21:46:10.000Z</time></trkpt>
        <trkpt lat="29.195632" lon="103.652751"><ele>664.4848</ele><time>2026-01-16T21:46:17.000Z</time></trkpt>
        <trkpt lat="29.195593" lon="103.65278"><ele>665.19617</ele><time>2026-01-16T21:46:25.000Z</time></trkpt>
        <trkpt lat="29.195553" lon="103.652804"><ele>665.2698</ele><time>2026-01-16T21:46:33.000Z</time></trkpt>
        <trkpt lat="29.195515" lon="103.65283"><ele>666.26025</ele><time>2026-01-16T21:46:38.000Z</time></trkpt>
        <trkpt lat="29.195475" lon="103.652867"><ele>666.56445</ele><time>2026-01-16T21:46:43.000Z</time></trkpt>
        <trkpt lat="29.195429" lon="103.652898"><ele>667.32245</ele><time>2026-01-16T21:46:49.000Z</time></trkpt>
        <trkpt lat="29.195384" lon="103.65294"><ele>666.73334</ele><time>2026-01-16T21:47:11.000Z</time></trkpt>
        <trkpt lat="29.195359" lon="103.652972"><ele>666.4896</ele><time>2026-01-16T21:47:16.000Z</time></trkpt>
        <trkpt lat="29.195318" lon="103.653015"><ele>666.7096</ele><time>2026-01-16T21:47:21.000Z</time></trkpt>
        <trkpt lat="29.19528" lon="103.653054"><ele>666.8986</ele><time>2026-01-16T21:47:25.000Z</time></trkpt>
        <trkpt lat="29.195232" lon="103.6531"><ele>667.0827</ele><time>2026-01-16T21:47:31.000Z</time></trkpt>
        <trkpt lat="29.195194" lon="103.653136"><ele>667.55304</ele><time>2026-01-16T21:47:36.000Z</time></trkpt>
        <trkpt lat="29.195156" lon="103.653186"><ele>668.2725</ele><time>2026-01-16T21:47:41.000Z</time></trkpt>
        <trkpt lat="29.195115" lon="103.653238"><ele>667.70013</ele><time>2026-01-16T21:47:48.000Z</time></trkpt>
        <trkpt lat="29.195085" lon="103.653273"><ele>667.70355</ele><time>2026-01-16T21:47:53.000Z</time></trkpt>
        <trkpt lat="29.195045" lon="103.65331"><ele>668.161</ele><time>2026-01-16T21:47:59.000Z</time></trkpt>
        <trkpt lat="29.195002" lon="103.653335"><ele>669.3023</ele><time>2026-01-16T21:48:05.000Z</time></trkpt>
        <trkpt lat="29.194959" lon="103.653362"><ele>669.99194</ele><time>2026-01-16T21:48:29.000Z</time></trkpt>
        <trkpt lat="29.194929" lon="103.653367"><ele>669.3802</ele><time>2026-01-16T21:48:33.000Z</time></trkpt>
        <trkpt lat="29.194883" lon="103.653377"><ele>669.0711</ele><time>2026-01-16T21:48:37.000Z</time></trkpt>
        <trkpt lat="29.194833" lon="103.653396"><ele>668.8592</ele><time>2026-01-16T21:48:41.000Z</time></trkpt>
        <trkpt lat="29.194777" lon="103.653412"><ele>668.2584</ele><time>2026-01-16T21:48:46.000Z</time></trkpt>
        <trkpt lat="29.194726" lon="103.653428"><ele>667.76587</ele><time>2026-01-16T21:48:51.000Z</time></trkpt>
        <trkpt lat="29.194673" lon="103.653414"><ele>666.223</ele><time>2026-01-16T21:49:56.000Z</time></trkpt>
        <trkpt lat="29.194653" lon="103.653418"><ele>666.3882</ele><time>2026-01-16T21:50:00.000Z</time></trkpt>
        <trkpt lat="29.1946" lon="103.653439"><ele>666.7108</ele><time>2026-01-16T21:50:05.000Z</time></trkpt>
        <trkpt lat="29.194536" lon="103.653466"><ele>667.48364</ele><time>2026-01-16T21:50:11.000Z</time></trkpt>
        <trkpt lat="29.19449" lon="103.653491"><ele>668.4078</ele><time>2026-01-16T21:50:16.000Z</time></trkpt>
        <trkpt lat="29.194455" lon="103.653531"><ele>670.7692</ele><time>2026-01-16T21:50:23.000Z</time></trkpt>
        <trkpt lat="29.194426" lon="103.653569"><ele>672.6325</ele><time>2026-01-16T21:50:28.000Z</time></trkpt>
        <trkpt lat="29.194383" lon="103.653602"><ele>673.72943</ele><time>2026-01-16T21:50:35.000Z</time></trkpt>
        <trkpt lat="29.19434" lon="103.65363"><ele>673.70013</ele><time>2026-01-16T21:50:40.000Z</time></trkpt>
        <trkpt lat="29.194316" lon="103.653679"><ele>673.1799</ele><time>2026-01-16T21:50:45.000Z</time></trkpt>
        <trkpt lat="29.194293" lon="103.653743"><ele>672.1041</ele><time>2026-01-16T21:50:51.000Z</time></trkpt>
        <trkpt lat="29.194287" lon="103.653796"><ele>672.6419</ele><time>2026-01-16T21:50:55.000Z</time></trkpt>
        <trkpt lat="29.194278" lon="103.653853"><ele>671.5617</ele><time>2026-01-16T21:51:23.000Z</time></trkpt>
        <trkpt lat="29.194258" lon="103.65388"><ele>670.47797</ele><time>2026-01-16T21:51:28.000Z</time></trkpt>
        <trkpt lat="29.194253" lon="103.653937"><ele>669.7661</ele><time>2026-01-16T21:51:33.000Z</time></trkpt>
        <trkpt lat="29.194242" lon="103.653998"><ele>669.9178</ele><time>2026-01-16T21:51:39.000Z</time></trkpt>
        <trkpt lat="29.194221" lon="103.654057"><ele>670.21783</ele><time>2026-01-16T21:51:46.000Z</time></trkpt>
        <trkpt lat="29.19418" lon="103.654091"><ele>670.7425</ele><time>2026-01-16T21:51:54.000Z</time></trkpt>
        <trkpt lat="29.194139" lon="103.654116"><ele>671.6273</ele><time>2026-01-16T21:51:59.000Z</time></trkpt>
        <trkpt lat="29.194112" lon="103.65415"><ele>671.6444</ele><time>2026-01-16T21:52:02.000Z</time></trkpt>
        <trkpt lat="29.194087" lon="103.654193"><ele>671.948</ele><time>2026-01-16T21:52:05.000Z</time></trkpt>
        <trkpt lat="29.194076" lon="103.654264"><ele>673.8709</ele><time>2026-01-16T21:52:12.000Z</time></trkpt>
        <trkpt lat="29.194088" lon="103.654311"><ele>675.0724</ele><time>2026-01-16T21:52:15.000Z</time></trkpt>
        <trkpt lat="29.194078" lon="103.654357"><ele>676.1879</ele><time>2026-01-16T21:52:18.000Z</time></trkpt>
        <trkpt lat="29.194034" lon="103.654411"><ele>677.57166</ele><time>2026-01-16T21:52:23.000Z</time></trkpt>
        <trkpt lat="29.193978" lon="103.654417"><ele>677.5002</ele><time>2026-01-16T21:52:29.000Z</time></trkpt>
        <trkpt lat="29.193919" lon="103.654407"><ele>677.1418</ele><time>2026-01-16T21:52:34.000Z</time></trkpt>
        <trkpt lat="29.193863" lon="103.654397"><ele>676.6343</ele><time>2026-01-16T21:52:38.000Z</time></trkpt>
        <trkpt lat="29.193815" lon="103.654418"><ele>676.07587</ele><time>2026-01-16T21:52:42.000Z</time></trkpt>
        <trkpt lat="29.193765" lon="103.654436"><ele>676.00214</ele><time>2026-01-16T21:52:45.000Z</time></trkpt>
        <trkpt lat="29.193708" lon="103.654436"><ele>676.07697</ele><time>2026-01-16T21:52:49.000Z</time></trkpt>
        <trkpt lat="29.193665" lon="103.654449"><ele>676.5781</ele><time>2026-01-16T21:52:52.000Z</time></trkpt>
        <trkpt lat="29.193677" lon="103.654482"><ele>677.243</ele><time>2026-01-16T21:52:57.000Z</time></trkpt>
        <trkpt lat="29.193637" lon="103.654514"><ele>677.32947</ele><time>2026-01-16T21:53:12.000Z</time></trkpt>
        <trkpt lat="29.193611" lon="103.654538"><ele>677.2827</ele><time>2026-01-16T21:53:15.000Z</time></trkpt>
        <trkpt lat="29.193569" lon="103.654529"><ele>676.9211</ele><time>2026-01-16T21:53:18.000Z</time></trkpt>
        <trkpt lat="29.193508" lon="103.654541"><ele>676.4618</ele><time>2026-01-16T21:53:25.000Z</time></trkpt>
        <trkpt lat="29.193506" lon="103.6546"><ele>676.8248</ele><time>2026-01-16T21:53:41.000Z</time></trkpt>
        <trkpt lat="29.19355" lon="103.654672"><ele>676.8734</ele><time>2026-01-16T21:53:55.000Z</time></trkpt>
        <trkpt lat="29.193563" lon="103.654637"><ele>676.1927</ele><time>2026-01-16T21:53:58.000Z</time></trkpt>
        <trkpt lat="29.193582" lon="103.654558"><ele>676.41473</ele><time>2026-01-16T21:54:29.000Z</time></trkpt>
        <trkpt lat="29.193573" lon="103.654614"><ele>675.8906</ele><time>2026-01-16T21:54:58.000Z</time></trkpt>
        <trkpt lat="29.193602" lon="103.654572"><ele>675.17554</ele><time>2026-01-16T21:55:11.000Z</time></trkpt>
        <trkpt lat="29.193662" lon="103.65454"><ele>676.5072</ele><time>2026-01-16T21:55:56.000Z</time></trkpt>
        <trkpt lat="29.193627" lon="103.654567"><ele>676.7272</ele><time>2026-01-16T21:56:04.000Z</time></trkpt>
        <trkpt lat="29.193578" lon="103.654563"><ele>676.1504</ele><time>2026-01-16T21:56:11.000Z</time></trkpt>
        <trkpt lat="29.193557" lon="103.654608"><ele>675.3953</ele><time>2026-01-16T21:56:36.000Z</time></trkpt>
        <trkpt lat="29.193571" lon="103.654557"><ele>675.78656</ele><time>2026-01-16T21:56:54.000Z</time></trkpt>
        <trkpt lat="29.193616" lon="103.654561"><ele>676.4122</ele><time>2026-01-16T21:57:16.000Z</time></trkpt>
        <trkpt lat="29.193574" lon="103.654592"><ele>675.69763</ele><time>2026-01-16T21:57:44.000Z</time></trkpt>
        <trkpt lat="29.193534" lon="103.654667"><ele>675.912</ele><time>2026-01-16T21:59:23.000Z</time></trkpt>
        <trkpt lat="29.193529" lon="103.654625"><ele>675.57544</ele><time>2026-01-16T21:59:29.000Z</time></trkpt>
        <trkpt lat="29.19356" lon="103.65463"><ele>675.931</ele><time>2026-01-16T21:59:39.000Z</time></trkpt>
        <trkpt lat="29.193605" lon="103.654607"><ele>676.41296</ele><time>2026-01-16T21:59:54.000Z</time></trkpt>
        <trkpt lat="29.193631" lon="103.65456"><ele>676.56433</ele><time>2026-01-16T22:00:37.000Z</time></trkpt>
        <trkpt lat="29.193588" lon="103.65458"><ele>676.27374</ele><time>2026-01-16T22:00:50.000Z</time></trkpt>
        <trkpt lat="29.193574" lon="103.654628"><ele>675.7519</ele><time>2026-01-16T22:00:59.000Z</time></trkpt>
        <trkpt lat="29.193633" lon="103.654658"><ele>675.8554</ele><time>2026-01-16T22:01:45.000Z</time></trkpt>
        <trkpt lat="29.1936" lon="103.654721"><ele>676.43756</ele><time>2026-01-16T22:01:54.000Z</time></trkpt>
        <trkpt lat="29.19362" lon="103.654698"><ele>676.13</ele><time>2026-01-16T22:01:57.000Z</time></trkpt>
        <trkpt lat="29.193628" lon="103.654658"><ele>674.8234</ele><time>2026-01-16T22:02:08.000Z</time></trkpt>
        <trkpt lat="29.19366" lon="103.654709"><ele>673.55145</ele><time>2026-01-16T22:03:02.000Z</time></trkpt>
        <trkpt lat="29.193658" lon="103.654762"><ele>673.57477</ele><time>2026-01-16T22:03:40.000Z</time></trkpt>
        <trkpt lat="29.193647" lon="103.654804"><ele>673.4809</ele><time>2026-01-16T22:03:48.000Z</time></trkpt>
        <trkpt lat="29.193669" lon="103.654829"><ele>673.8722</ele><time>2026-01-16T22:03:50.000Z</time></trkpt>
        <trkpt lat="29.193646" lon="103.654863"><ele>672.93805</ele><time>2026-01-16T22:03:58.000Z</time></trkpt>
        <trkpt lat="29.193624" lon="103.654904"><ele>672.96094</ele><time>2026-01-16T22:04:03.000Z</time></trkpt>
        <trkpt lat="29.193622" lon="103.654969"><ele>666.8984</ele><time>2026-01-16T22:04:13.000Z</time></trkpt>
        <trkpt lat="29.193644" lon="103.655017"><ele>662.3772</ele><time>2026-01-16T22:04:20.000Z</time></trkpt>
        <trkpt lat="29.193668" lon="103.655067"><ele>659.35364</ele><time>2026-01-16T22:04:28.000Z</time></trkpt>
        <trkpt lat="29.193707" lon="103.655097"><ele>659.69556</ele><time>2026-01-16T22:04:38.000Z</time></trkpt>
        <trkpt lat="29.193733" lon="103.655137"><ele>661.1357</ele><time>2026-01-16T22:04:47.000Z</time></trkpt>
        <trkpt lat="29.193773" lon="103.65511"><ele>666.625</ele><time>2026-01-16T22:05:10.000Z</time></trkpt>
        <trkpt lat="29.193774" lon="103.655056"><ele>672.76794</ele><time>2026-01-16T22:05:16.000Z</time></trkpt>
        <trkpt lat="29.193776" lon="103.655082"><ele>674.7488</ele><time>2026-01-16T22:05:20.000Z</time></trkpt>
        <trkpt lat="29.193734" lon="103.655095"><ele>675.8693</ele><time>2026-01-16T22:05:25.000Z</time></trkpt>
        <trkpt lat="29.193686" lon="103.65504"><ele>675.9052</ele><time>2026-01-16T22:05:27.000Z</time></trkpt>
        <trkpt lat="29.193673" lon="103.655022"><ele>675.6305</ele><time>2026-01-16T22:05:31.000Z</time></trkpt>
        <trkpt lat="29.193705" lon="103.655058"><ele>674.76904</ele><time>2026-01-16T22:05:37.000Z</time></trkpt>
        <trkpt lat="29.193667" lon="103.654968"><ele>676.6221</ele><time>2026-01-16T22:05:47.000Z</time></trkpt>
        <trkpt lat="29.193698" lon="103.654982"><ele>677.446</ele><time>2026-01-16T22:05:49.000Z</time></trkpt>
        <trkpt lat="29.193733" lon="103.655005"><ele>678.1342</ele><time>2026-01-16T22:05:52.000Z</time></trkpt>
        <trkpt lat="29.193744" lon="103.654959"><ele>678.77</ele><time>2026-01-16T22:05:57.000Z</time></trkpt>
        <trkpt lat="29.193722" lon="103.654886"><ele>680.9305</ele><time>2026-01-16T22:06:02.000Z</time></trkpt>
        <trkpt lat="29.1937" lon="103.654823"><ele>681.8868</ele><time>2026-01-16T22:06:07.000Z</time></trkpt>
        <trkpt lat="29.193701" lon="103.65484"><ele>681.9387</ele><time>2026-01-16T22:06:09.000Z</time></trkpt>
        <trkpt lat="29.193682" lon="103.654892"><ele>682.29205</ele><time>2026-01-16T22:06:14.000Z</time></trkpt>
        <trkpt lat="29.193681" lon="103.654963"><ele>683.159</ele><time>2026-01-16T22:06:19.000Z</time></trkpt>
        <trkpt lat="29.193668" lon="103.654955"><ele>683.44867</ele><time>2026-01-16T22:06:20.000Z</time></trkpt>
        <trkpt lat="29.193676" lon="103.65498"><ele>683.6585</ele><time>2026-01-16T22:06:27.000Z</time></trkpt>
        <trkpt lat="29.193732" lon="103.65505"><ele>685.06866</ele><time>2026-01-16T22:06:34.000Z</time></trkpt>
        <trkpt lat="29.193769" lon="103.655116"><ele>685.8098</ele><time>2026-01-16T22:06:41.000Z</time></trkpt>
        <trkpt lat="29.193771" lon="103.655079"><ele>686.1483</ele><time>2026-01-16T22:06:46.000Z</time></trkpt>
        <trkpt lat="29.193773" lon="103.655032"><ele>686.50665</ele><time>2026-01-16T22:06:48.000Z</time></trkpt>
        <trkpt lat="29.193685" lon="103.654936"><ele>687.01025</ele><time>2026-01-16T22:06:51.000Z</time></trkpt>
        <trkpt lat="29.193639" lon="103.654912"><ele>686.6452</ele><time>2026-01-16T22:06:54.000Z</time></trkpt>
        <trkpt lat="29.193616" lon="103.654908"><ele>686.31195</ele><time>2026-01-16T22:06:58.000Z</time></trkpt>
        <trkpt lat="29.193669" lon="103.654978"><ele>685.6809</ele><time>2026-01-16T22:07:00.000Z</time></trkpt>
        <trkpt lat="29.193706" lon="103.655005"><ele>685.6479</ele><time>2026-01-16T22:07:05.000Z</time></trkpt>
        <trkpt lat="29.193716" lon="103.655007"><ele>685.82214</ele><time>2026-01-16T22:07:07.000Z</time></trkpt>
        <trkpt lat="29.193697" lon="103.654988"><ele>686.2558</ele><time>2026-01-16T22:07:11.000Z</time></trkpt>
        <trkpt lat="29.193651" lon="103.655006"><ele>686.67847</ele><time>2026-01-16T22:07:18.000Z</time></trkpt>
        <trkpt lat="29.193595" lon="103.655014"><ele>687.4427</ele><time>2026-01-16T22:07:36.000Z</time></trkpt>
        <trkpt lat="29.193635" lon="103.655032"><ele>687.2189</ele><time>2026-01-16T22:07:45.000Z</time></trkpt>
        <trkpt lat="29.193598" lon="103.655035"><ele>687.52454</ele><time>2026-01-16T22:07:48.000Z</time></trkpt>
        <trkpt lat="29.193579" lon="103.654985"><ele>686.8585</ele><time>2026-01-16T22:08:05.000Z</time></trkpt>
        <trkpt lat="29.193573" lon="103.654919"><ele>686.64514</ele><time>2026-01-16T22:08:08.000Z</time></trkpt>
        <trkpt lat="29.193574" lon="103.65485"><ele>684.94904</ele><time>2026-01-16T22:08:11.000Z</time></trkpt>
        <trkpt lat="29.193593" lon="103.654851"><ele>684.22034</ele><time>2026-01-16T22:08:12.000Z</time></trkpt>
        <trkpt lat="29.193652" lon="103.654907"><ele>683.0989</ele><time>2026-01-16T22:08:14.000Z</time></trkpt>
        <trkpt lat="29.193702" lon="103.654975"><ele>682.52167</ele><time>2026-01-16T22:08:15.000Z</time></trkpt>
        <trkpt lat="29.193747" lon="103.655035"><ele>681.2203</ele><time>2026-01-16T22:08:20.000Z</time></trkpt>
        <trkpt lat="29.193716" lon="103.655091"><ele>681.95575</ele><time>2026-01-16T22:08:29.000Z</time></trkpt>
        <trkpt lat="29.193653" lon="103.655091"><ele>682.1465</ele><time>2026-01-16T22:08:34.000Z</time></trkpt>
        <trkpt lat="29.193526" lon="103.655041"><ele>681.75214</ele><time>2026-01-16T22:08:38.000Z</time></trkpt>
        <trkpt lat="29.193504" lon="103.655047"><ele>681.7767</ele><time>2026-01-16T22:08:39.000Z</time></trkpt>
        <trkpt lat="29.193512" lon="103.655043"><ele>681.8749</ele><time>2026-01-16T22:08:42.000Z</time></trkpt>
        <trkpt lat="29.19359" lon="103.655031"><ele>681.55786</ele><time>2026-01-16T22:08:45.000Z</time></trkpt>
        <trkpt lat="29.193668" lon="103.655029"><ele>680.42694</ele><time>2026-01-16T22:08:46.000Z</time></trkpt>
        <trkpt lat="29.19375" lon="103.655012"><ele>677.80273</ele><time>2026-01-16T22:08:48.000Z</time></trkpt>
        <trkpt lat="29.193832" lon="103.654976"><ele>673.6864</ele><time>2026-01-16T22:08:51.000Z</time></trkpt>
        <trkpt lat="29.193873" lon="103.654946"><ele>671.1756</ele><time>2026-01-16T22:08:53.000Z</time></trkpt>
        <trkpt lat="29.193917" lon="103.654918"><ele>669.3702</ele><time>2026-01-16T22:08:56.000Z</time></trkpt>
        <trkpt lat="29.193934" lon="103.654911"><ele>669.5948</ele><time>2026-01-16T22:09:03.000Z</time></trkpt>
        <trkpt lat="29.193937" lon="103.654876"><ele>670.84406</ele><time>2026-01-16T22:09:08.000Z</time></trkpt>
        <trkpt lat="29.193918" lon="103.654924"><ele>671.6777</ele><time>2026-01-16T22:09:16.000Z</time></trkpt>
        <trkpt lat="29.193884" lon="103.654896"><ele>672.76886</ele><time>2026-01-16T22:09:23.000Z</time></trkpt>
        <trkpt lat="29.193864" lon="103.654936"><ele>672.83795</ele><time>2026-01-16T22:09:25.000Z</time></trkpt>
        <trkpt lat="29.193841" lon="103.655007"><ele>672.37317</ele><time>2026-01-16T22:09:30.000Z</time></trkpt>
        <trkpt lat="29.193841" lon="103.655057"><ele>671.76086</ele><time>2026-01-16T22:09:32.000Z</time></trkpt>
        <trkpt lat="29.193831" lon="103.655142"><ele>670.56683</ele><time>2026-01-16T22:09:36.000Z</time></trkpt>
        <trkpt lat="29.193812" lon="103.655202"><ele>669.7545</ele><time>2026-01-16T22:09:39.000Z</time></trkpt>
        <trkpt lat="29.193778" lon="103.65518"><ele>667.602</ele><time>2026-01-16T22:09:48.000Z</time></trkpt>
        <trkpt lat="29.193754" lon="103.655112"><ele>668.5529</ele><time>2026-01-16T22:09:51.000Z</time></trkpt>
        <trkpt lat="29.193724" lon="103.655061"><ele>669.8954</ele><time>2026-01-16T22:09:53.000Z</time></trkpt>
        <trkpt lat="29.19374" lon="103.655081"><ele>671.3714</ele><time>2026-01-16T22:09:55.000Z</time></trkpt>
        <trkpt lat="29.193728" lon="103.655078"><ele>672.67114</ele><time>2026-01-16T22:09:57.000Z</time></trkpt>
        <trkpt lat="29.193709" lon="103.655062"><ele>673.9954</ele><time>2026-01-16T22:09:58.000Z</time></trkpt>
        <trkpt lat="29.193668" lon="103.655005"><ele>678.1018</ele><time>2026-01-16T22:10:02.000Z</time></trkpt>
        <trkpt lat="29.193633" lon="103.654963"><ele>680.385</ele><time>2026-01-16T22:10:04.000Z</time></trkpt>
        <trkpt lat="29.193557" lon="103.654869"><ele>682.2091</ele><time>2026-01-16T22:10:12.000Z</time></trkpt>
        <trkpt lat="29.19357" lon="103.654901"><ele>681.3855</ele><time>2026-01-16T22:10:13.000Z</time></trkpt>
        <trkpt lat="29.1936" lon="103.654933"><ele>681.0008</ele><time>2026-01-16T22:10:16.000Z</time></trkpt>
        <trkpt lat="29.193574" lon="103.654885"><ele>680.93176</ele><time>2026-01-16T22:10:19.000Z</time></trkpt>
        <trkpt lat="29.193607" lon="103.654884"><ele>678.2399</ele><time>2026-01-16T22:10:27.000Z</time></trkpt>
        <trkpt lat="29.19364" lon="103.654912"><ele>678.21936</ele><time>2026-01-16T22:10:29.000Z</time></trkpt>
        <trkpt lat="29.193628" lon="103.654911"><ele>678.2589</ele><time>2026-01-16T22:10:37.000Z</time></trkpt>
        <trkpt lat="29.193646" lon="103.654934"><ele>678.2785</ele><time>2026-01-16T22:10:39.000Z</time></trkpt>
        <trkpt lat="29.193656" lon="103.654949"><ele>677.8248</ele><time>2026-01-16T22:10:40.000Z</time></trkpt>
        <trkpt lat="29.193686" lon="103.65499"><ele>677.75464</ele><time>2026-01-16T22:10:41.000Z</time></trkpt>
        <trkpt lat="29.193719" lon="103.655036"><ele>677.7198</ele><time>2026-01-16T22:10:42.000Z</time></trkpt>
        <trkpt lat="29.193777" lon="103.65508"><ele>676.8797</ele><time>2026-01-16T22:10:48.000Z</time></trkpt>
        <trkpt lat="29.193784" lon="103.655045"><ele>676.65845</ele><time>2026-01-16T22:10:51.000Z</time></trkpt>
        <trkpt lat="29.193762" lon="103.655007"><ele>676.5</ele><time>2026-01-16T22:10:53.000Z</time></trkpt>
        <trkpt lat="29.193723" lon="103.654972"><ele>676.5558</ele><time>2026-01-16T22:10:55.000Z</time></trkpt>
        <trkpt lat="29.193643" lon="103.654893"><ele>676.1946</ele><time>2026-01-16T22:10:59.000Z</time></trkpt>
        <trkpt lat="29.193635" lon="103.654869"><ele>678.6754</ele><time>2026-01-16T22:11:07.000Z</time></trkpt>
        <trkpt lat="29.19368" lon="103.654907"><ele>679.7844</ele><time>2026-01-16T22:11:12.000Z</time></trkpt>
        <trkpt lat="29.19374" lon="103.654983"><ele>680.5399</ele><time>2026-01-16T22:11:20.000Z</time></trkpt>
        <trkpt lat="29.193792" lon="103.655019"><ele>679.96985</ele><time>2026-01-16T22:11:23.000Z</time></trkpt>
        <trkpt lat="29.193828" lon="103.655076"><ele>679.51935</ele><time>2026-01-16T22:11:27.000Z</time></trkpt>
        <trkpt lat="29.193832" lon="103.655115"><ele>679.3334</ele><time>2026-01-16T22:11:28.000Z</time></trkpt>
        <trkpt lat="29.193827" lon="103.65513"><ele>678.90674</ele><time>2026-01-16T22:11:30.000Z</time></trkpt>
        <trkpt lat="29.1938" lon="103.655098"><ele>677.2325</ele><time>2026-01-16T22:11:35.000Z</time></trkpt>
        <trkpt lat="29.193731" lon="103.655033"><ele>674.9539</ele><time>2026-01-16T22:11:44.000Z</time></trkpt>
        <trkpt lat="29.193725" lon="103.655078"><ele>668.16425</ele><time>2026-01-16T22:12:05.000Z</time></trkpt>
        <trkpt lat="29.193717" lon="103.655036"><ele>667.867</ele><time>2026-01-16T22:12:13.000Z</time></trkpt>
        <trkpt lat="29.193671" lon="103.65502"><ele>664.8059</ele><time>2026-01-16T22:12:22.000Z</time></trkpt>
        <trkpt lat="29.193634" lon="103.654986"><ele>672.4075</ele><time>2026-01-16T22:13:01.000Z</time></trkpt>
        <trkpt lat="29.193593" lon="103.654951"><ele>668.69543</ele><time>2026-01-16T22:13:29.000Z</time></trkpt>
        <trkpt lat="29.193631" lon="103.654929"><ele>667.7153</ele><time>2026-01-16T22:13:38.000Z</time></trkpt>
        <trkpt lat="29.19363" lon="103.654873"><ele>670.1472</ele><time>2026-01-16T22:13:47.000Z</time></trkpt>
        <trkpt lat="29.193629" lon="103.65481"><ele>672.9417</ele><time>2026-01-16T22:14:08.000Z</time></trkpt>
        <trkpt lat="29.193656" lon="103.654765"><ele>672.95776</ele><time>2026-01-16T22:14:24.000Z</time></trkpt>
        <trkpt lat="29.193696" lon="103.654739"><ele>674.6812</ele><time>2026-01-16T22:14:38.000Z</time></trkpt>
        <trkpt lat="29.193718" lon="103.654706"><ele>675.23096</ele><time>2026-01-16T22:14:42.000Z</time></trkpt>
        <trkpt lat="29.193696" lon="103.654647"><ele>677.007</ele><time>2026-01-16T22:15:01.000Z</time></trkpt>
        <trkpt lat="29.193677" lon="103.654593"><ele>676.6517</ele><time>2026-01-16T22:15:08.000Z</time></trkpt>
        <trkpt lat="29.193641" lon="103.654609"><ele>676.14996</ele><time>2026-01-16T22:15:17.000Z</time></trkpt>
        <trkpt lat="29.193628" lon="103.654549"><ele>676.5564</ele><time>2026-01-16T22:15:43.000Z</time></trkpt>
        <trkpt lat="29.193587" lon="103.654561"><ele>676.54065</ele><time>2026-01-16T22:15:55.000Z</time></trkpt>
        <trkpt lat="29.193627" lon="103.654552"><ele>676.4974</ele><time>2026-01-16T22:16:24.000Z</time></trkpt>
        <trkpt lat="29.193597" lon="103.654584"><ele>676.3995</ele><time>2026-01-16T22:16:33.000Z</time></trkpt>
        <trkpt lat="29.193627" lon="103.654563"><ele>676.0351</ele><time>2026-01-16T22:16:52.000Z</time></trkpt>
        <trkpt lat="29.193669" lon="103.654537"><ele>676.76855</ele><time>2026-01-16T22:17:04.000Z</time></trkpt>
        <trkpt lat="29.193635" lon="103.654576"><ele>676.931</ele><time>2026-01-16T22:18:20.000Z</time></trkpt>
        <trkpt lat="29.193623" lon="103.654521"><ele>676.7822</ele><time>2026-01-16T22:19:10.000Z</time></trkpt>
        <trkpt lat="29.193626" lon="103.654476"><ele>676.98004</ele><time>2026-01-16T22:19:16.000Z</time></trkpt>
        <trkpt lat="29.193669" lon="103.65447"><ele>677.65076</ele><time>2026-01-16T22:19:27.000Z</time></trkpt>
        <trkpt lat="29.193706" lon="103.654445"><ele>677.9202</ele><time>2026-01-16T22:19:34.000Z</time></trkpt>
        <trkpt lat="29.193763" lon="103.65444"><ele>678.1557</ele><time>2026-01-16T22:19:44.000Z</time></trkpt>
        <trkpt lat="29.193811" lon="103.654445"><ele>678.3706</ele><time>2026-01-16T22:19:50.000Z</time></trkpt>
        <trkpt lat="29.193856" lon="103.654458"><ele>677.9362</ele><time>2026-01-16T22:19:55.000Z</time></trkpt>
        <trkpt lat="29.193902" lon="103.654446"><ele>677.958</ele><time>2026-01-16T22:20:01.000Z</time></trkpt>
        <trkpt lat="29.193951" lon="103.654432"><ele>677.68176</ele><time>2026-01-16T22:20:17.000Z</time></trkpt>
        <trkpt lat="29.193988" lon="103.654402"><ele>677.747</ele><time>2026-01-16T22:20:26.000Z</time></trkpt>
        <trkpt lat="29.194004" lon="103.654341"><ele>677.9395</ele><time>2026-01-16T22:20:35.000Z</time></trkpt>
        <trkpt lat="29.194039" lon="103.654309"><ele>677.3099</ele><time>2026-01-16T22:20:42.000Z</time></trkpt>
        <trkpt lat="29.19408" lon="103.654324"><ele>676.88245</ele><time>2026-01-16T22:20:48.000Z</time></trkpt>
        <trkpt lat="29.194117" lon="103.654305"><ele>676.7337</ele><time>2026-01-16T22:20:53.000Z</time></trkpt>
        <trkpt lat="29.19412" lon="103.654249"><ele>676.08136</ele><time>2026-01-16T22:21:02.000Z</time></trkpt>
        <trkpt lat="29.194136" lon="103.6542"><ele>674.58325</ele><time>2026-01-16T22:21:10.000Z</time></trkpt>
        <trkpt lat="29.194151" lon="103.654159"><ele>673.7703</ele><time>2026-01-16T22:21:14.000Z</time></trkpt>
        <trkpt lat="29.194196" lon="103.654119"><ele>672.63806</ele><time>2026-01-16T22:21:20.000Z</time></trkpt>
        <trkpt lat="29.194236" lon="103.654079"><ele>672.22797</ele><time>2026-01-16T22:21:24.000Z</time></trkpt>
        <trkpt lat="29.194273" lon="103.654026"><ele>672.0017</ele><time>2026-01-16T22:21:32.000Z</time></trkpt>
        <trkpt lat="29.194318" lon="103.654001"><ele>671.7331</ele><time>2026-01-16T22:21:46.000Z</time></trkpt>
        <trkpt lat="29.194329" lon="103.65395"><ele>670.8811</ele><time>2026-01-16T22:21:56.000Z</time></trkpt>
        <trkpt lat="29.194328" lon="103.653889"><ele>670.6541</ele><time>2026-01-16T22:22:05.000Z</time></trkpt>
        <trkpt lat="29.194359" lon="103.653837"><ele>670.5779</ele><time>2026-01-16T22:22:16.000Z</time></trkpt>
        <trkpt lat="29.194372" lon="103.653782"><ele>670.6853</ele><time>2026-01-16T22:22:21.000Z</time></trkpt>
        <trkpt lat="29.194377" lon="103.653721"><ele>671.5295</ele><time>2026-01-16T22:22:31.000Z</time></trkpt>
        <trkpt lat="29.194376" lon="103.653674"><ele>672.2191</ele><time>2026-01-16T22:22:35.000Z</time></trkpt>
        <trkpt lat="29.194371" lon="103.653612"><ele>673.38794</ele><time>2026-01-16T22:22:41.000Z</time></trkpt>
        <trkpt lat="29.194414" lon="103.653584"><ele>672.99097</ele><time>2026-01-16T22:22:50.000Z</time></trkpt>
        <trkpt lat="29.194454" lon="103.653565"><ele>673.12823</ele><time>2026-01-16T22:22:56.000Z</time></trkpt>
        <trkpt lat="29.194492" lon="103.653531"><ele>672.1959</ele><time>2026-01-16T22:23:03.000Z</time></trkpt>
        <trkpt lat="29.194527" lon="103.653498"><ele>670.54443</ele><time>2026-01-16T22:23:08.000Z</time></trkpt>
        <trkpt lat="29.194571" lon="103.653459"><ele>669.2889</ele><time>2026-01-16T22:23:15.000Z</time></trkpt>
        <trkpt lat="29.194624" lon="103.653433"><ele>669.0248</ele><time>2026-01-16T22:23:23.000Z</time></trkpt>
        <trkpt lat="29.194669" lon="103.653418"><ele>668.41364</ele><time>2026-01-16T22:23:30.000Z</time></trkpt>
        <trkpt lat="29.194723" lon="103.653402"><ele>667.9061</ele><time>2026-01-16T22:23:38.000Z</time></trkpt>
        <trkpt lat="29.194768" lon="103.653392"><ele>668.3373</ele><time>2026-01-16T22:23:45.000Z</time></trkpt>
        <trkpt lat="29.194816" lon="103.653385"><ele>668.9363</ele><time>2026-01-16T22:23:51.000Z</time></trkpt>
        <trkpt lat="29.194864" lon="103.65338"><ele>669.24457</ele><time>2026-01-16T22:23:57.000Z</time></trkpt>
        <trkpt lat="29.194913" lon="103.653361"><ele>669.76807</ele><time>2026-01-16T22:24:06.000Z</time></trkpt>
        <trkpt lat="29.194969" lon="103.653365"><ele>671.19916</ele><time>2026-01-16T22:24:21.000Z</time></trkpt>
        <trkpt lat="29.194996" lon="103.653327"><ele>671.9393</ele><time>2026-01-16T22:24:34.000Z</time></trkpt>
        <trkpt lat="29.19504" lon="103.653335"><ele>672.0208</ele><time>2026-01-16T22:24:58.000Z</time></trkpt>
        <trkpt lat="29.19508" lon="103.653302"><ele>669.6917</ele><time>2026-01-16T22:26:08.000Z</time></trkpt>
        <trkpt lat="29.195121" lon="103.653273"><ele>669.8928</ele><time>2026-01-16T22:26:26.000Z</time></trkpt>
        <trkpt lat="29.195153" lon="103.653233"><ele>668.76276</ele><time>2026-01-16T22:26:39.000Z</time></trkpt>
        <trkpt lat="29.195177" lon="103.653191"><ele>667.5609</ele><time>2026-01-16T22:26:46.000Z</time></trkpt>
        <trkpt lat="29.195211" lon="103.653147"><ele>667.55005</ele><time>2026-01-16T22:26:52.000Z</time></trkpt>
        <trkpt lat="29.195246" lon="103.653112"><ele>667.0843</ele><time>2026-01-16T22:26:57.000Z</time></trkpt>
        <trkpt lat="29.195278" lon="103.653067"><ele>667.7747</ele><time>2026-01-16T22:27:03.000Z</time></trkpt>
        <trkpt lat="29.195321" lon="103.653036"><ele>668.04974</ele><time>2026-01-16T22:27:09.000Z</time></trkpt>
        <trkpt lat="29.195355" lon="103.652988"><ele>668.34705</ele><time>2026-01-16T22:27:14.000Z</time></trkpt>
        <trkpt lat="29.195394" lon="103.652943"><ele>668.78705</ele><time>2026-01-16T22:27:25.000Z</time></trkpt>
        <trkpt lat="29.195428" lon="103.652908"><ele>668.99255</ele><time>2026-01-16T22:27:32.000Z</time></trkpt>
        <trkpt lat="29.195462" lon="103.652871"><ele>670.699</ele><time>2026-01-16T22:27:38.000Z</time></trkpt>
        <trkpt lat="29.195509" lon="103.652838"><ele>670.3613</ele><time>2026-01-16T22:27:44.000Z</time></trkpt>
        <trkpt lat="29.195548" lon="103.652798"><ele>669.9869</ele><time>2026-01-16T22:27:50.000Z</time></trkpt>
        <trkpt lat="29.195583" lon="103.652757"><ele>668.8192</ele><time>2026-01-16T22:27:57.000Z</time></trkpt>
        <trkpt lat="29.195625" lon="103.652727"><ele>668.1628</ele><time>2026-01-16T22:28:05.000Z</time></trkpt>
        <trkpt lat="29.195663" lon="103.652704"><ele>667.6252</ele><time>2026-01-16T22:28:11.000Z</time></trkpt>
        <trkpt lat="29.195705" lon="103.652675"><ele>667.5612</ele><time>2026-01-16T22:28:17.000Z</time></trkpt>
        <trkpt lat="29.195743" lon="103.652639"><ele>666.5686</ele><time>2026-01-16T22:28:22.000Z</time></trkpt>
        <trkpt lat="29.195794" lon="103.652624"><ele>666.4618</ele><time>2026-01-16T22:28:31.000Z</time></trkpt>
        <trkpt lat="29.195835" lon="103.652614"><ele>665.58997</ele><time>2026-01-16T22:28:37.000Z</time></trkpt>
        <trkpt lat="29.195883" lon="103.652595"><ele>663.78204</ele><time>2026-01-16T22:28:43.000Z</time></trkpt>
        <trkpt lat="29.195931" lon="103.652586"><ele>662.4461</ele><time>2026-01-16T22:28:48.000Z</time></trkpt>
        <trkpt lat="29.195983" lon="103.652587"><ele>661.5078</ele><time>2026-01-16T22:28:55.000Z</time></trkpt>
        <trkpt lat="29.196042" lon="103.652608"><ele>660.72784</ele><time>2026-01-16T22:29:02.000Z</time></trkpt>
        <trkpt lat="29.196002" lon="103.652617"><ele>660.4524</ele><time>2026-01-16T22:29:30.000Z</time></trkpt>
        <trkpt lat="29.196051" lon="103.652619"><ele>658.7219</ele><time>2026-01-16T22:31:19.000Z</time></trkpt>
        <trkpt lat="29.196104" lon="103.652623"><ele>658.7779</ele><time>2026-01-16T22:31:24.000Z</time></trkpt>
        <trkpt lat="29.196158" lon="103.652622"><ele>657.79266</ele><time>2026-01-16T22:31:29.000Z</time></trkpt>
        <trkpt lat="29.196215" lon="103.652626"><ele>656.47974</ele><time>2026-01-16T22:31:35.000Z</time></trkpt>
        <trkpt lat="29.196262" lon="103.652628"><ele>654.5996</ele><time>2026-01-16T22:31:41.000Z</time></trkpt>
        <trkpt lat="29.19631" lon="103.652616"><ele>653.67535</ele><time>2026-01-16T22:31:48.000Z</time></trkpt>
        <trkpt lat="29.19635" lon="103.652599"><ele>652.83</ele><time>2026-01-16T22:31:53.000Z</time></trkpt>
        <trkpt lat="29.196391" lon="103.652574"><ele>651.8482</ele><time>2026-01-16T22:31:58.000Z</time></trkpt>
        <trkpt lat="29.196446" lon="103.652553"><ele>649.6718</ele><time>2026-01-16T22:32:10.000Z</time></trkpt>
        <trkpt lat="29.196476" lon="103.652523"><ele>648.3515</ele><time>2026-01-16T22:32:16.000Z</time></trkpt>
        <trkpt lat="29.196522" lon="103.652499"><ele>646.6462</ele><time>2026-01-16T22:32:23.000Z</time></trkpt>
        <trkpt lat="29.196562" lon="103.652458"><ele>644.78253</ele><time>2026-01-16T22:32:31.000Z</time></trkpt>
        <trkpt lat="29.196597" lon="103.652418"><ele>643.1332</ele><time>2026-01-16T22:32:39.000Z</time></trkpt>
        <trkpt lat="29.196638" lon="103.652376"><ele>640.9287</ele><time>2026-01-16T22:33:16.000Z</time></trkpt>
        <trkpt lat="29.196669" lon="103.652349"><ele>640.39856</ele><time>2026-01-16T22:33:22.000Z</time></trkpt>
        <trkpt lat="29.196706" lon="103.652309"><ele>640.21173</ele><time>2026-01-16T22:33:27.000Z</time></trkpt>
        <trkpt lat="29.196737" lon="103.652262"><ele>639.5219</ele><time>2026-01-16T22:33:32.000Z</time></trkpt>
        <trkpt lat="29.196765" lon="103.652211"><ele>639.20404</ele><time>2026-01-16T22:33:38.000Z</time></trkpt>
        <trkpt lat="29.19679" lon="103.65216"><ele>638.8964</ele><time>2026-01-16T22:33:45.000Z</time></trkpt>
        <trkpt lat="29.196814" lon="103.652115"><ele>638.6976</ele><time>2026-01-16T22:33:51.000Z</time></trkpt>
        <trkpt lat="29.196849" lon="103.652065"><ele>638.9755</ele><time>2026-01-16T22:33:58.000Z</time></trkpt>
        <trkpt lat="29.196872" lon="103.652019"><ele>638.6585</ele><time>2026-01-16T22:34:03.000Z</time></trkpt>
        <trkpt lat="29.196901" lon="103.651972"><ele>637.9648</ele><time>2026-01-16T22:34:08.000Z</time></trkpt>
        <trkpt lat="29.196938" lon="103.651934"><ele>636.98456</ele><time>2026-01-16T22:34:13.000Z</time></trkpt>
        <trkpt lat="29.196983" lon="103.651904"><ele>635.59546</ele><time>2026-01-16T22:34:18.000Z</time></trkpt>
        <trkpt lat="29.197023" lon="103.651867"><ele>634.74115</ele><time>2026-01-16T22:34:23.000Z</time></trkpt>
        <trkpt lat="29.197061" lon="103.651833"><ele>634.2463</ele><time>2026-01-16T22:34:28.000Z</time></trkpt>
        <trkpt lat="29.197099" lon="103.65179"><ele>633.60486</ele><time>2026-01-16T22:34:34.000Z</time></trkpt>
        <trkpt lat="29.197137" lon="103.65175"><ele>632.85614</ele><time>2026-01-16T22:34:40.000Z</time></trkpt>
        <trkpt lat="29.197173" lon="103.651717"><ele>631.8624</ele><time>2026-01-16T22:34:45.000Z</time></trkpt>
        <trkpt lat="29.197215" lon="103.651681"><ele>630.81354</ele><time>2026-01-16T22:34:52.000Z</time></trkpt>
        <trkpt lat="29.197256" lon="103.651651"><ele>630.3854</ele><time>2026-01-16T22:35:03.000Z</time></trkpt>
        <trkpt lat="29.197295" lon="103.651618"><ele>626.8306</ele><time>2026-01-16T22:35:50.000Z</time></trkpt>
        <trkpt lat="29.197326" lon="103.651592"><ele>626.25366</ele><time>2026-01-16T22:35:56.000Z</time></trkpt>
        <trkpt lat="29.197374" lon="103.65157"><ele>625.79474</ele><time>2026-01-16T22:36:02.000Z</time></trkpt>
        <trkpt lat="29.197424" lon="103.651551"><ele>626.25574</ele><time>2026-01-16T22:36:08.000Z</time></trkpt>
        <trkpt lat="29.197468" lon="103.651538"><ele>626.7477</ele><time>2026-01-16T22:36:13.000Z</time></trkpt>
        <trkpt lat="29.197511" lon="103.651507"><ele>626.3794</ele><time>2026-01-16T22:36:18.000Z</time></trkpt>
        <trkpt lat="29.197554" lon="103.651468"><ele>625.4502</ele><time>2026-01-16T22:36:24.000Z</time></trkpt>
        <trkpt lat="29.197593" lon="103.65143"><ele>624.2322</ele><time>2026-01-16T22:36:31.000Z</time></trkpt>
        <trkpt lat="29.197631" lon="103.651399"><ele>623.45</ele><time>2026-01-16T22:36:38.000Z</time></trkpt>
        <trkpt lat="29.197677" lon="103.651379"><ele>622.0188</ele><time>2026-01-16T22:36:45.000Z</time></trkpt>
        <trkpt lat="29.197716" lon="103.651356"><ele>621.51404</ele><time>2026-01-16T22:36:50.000Z</time></trkpt>
        <trkpt lat="29.197756" lon="103.651327"><ele>620.61914</ele><time>2026-01-16T22:36:56.000Z</time></trkpt>
        <trkpt lat="29.197797" lon="103.651289"><ele>619.7127</ele><time>2026-01-16T22:37:04.000Z</time></trkpt>
        <trkpt lat="29.19783" lon="103.651256"><ele>619.155</ele><time>2026-01-16T22:37:10.000Z</time></trkpt>
        <trkpt lat="29.197859" lon="103.651221"><ele>618.7287</ele><time>2026-01-16T22:37:14.000Z</time></trkpt>
        <trkpt lat="29.197893" lon="103.651178"><ele>618.2218</ele><time>2026-01-16T22:37:19.000Z</time></trkpt>
        <trkpt lat="29.19793" lon="103.651134"><ele>617.7083</ele><time>2026-01-16T22:37:25.000Z</time></trkpt>
        <trkpt lat="29.197966" lon="103.651108"><ele>617.2881</ele><time>2026-01-16T22:37:29.000Z</time></trkpt>
        <trkpt lat="29.198013" lon="103.651077"><ele>616.8563</ele><time>2026-01-16T22:37:35.000Z</time></trkpt>
        <trkpt lat="29.198061" lon="103.651048"><ele>615.8586</ele><time>2026-01-16T22:37:41.000Z</time></trkpt>
        <trkpt lat="29.198105" lon="103.651018"><ele>615.08936</ele><time>2026-01-16T22:37:46.000Z</time></trkpt>
        <trkpt lat="29.198145" lon="103.650981"><ele>614.37726</ele><time>2026-01-16T22:37:51.000Z</time></trkpt>
        <trkpt lat="29.198179" lon="103.650942"><ele>614.2031</ele><time>2026-01-16T22:37:55.000Z</time></trkpt>
        <trkpt lat="29.198217" lon="103.650908"><ele>613.85223</ele><time>2026-01-16T22:37:59.000Z</time></trkpt>
        <trkpt lat="29.198258" lon="103.650882"><ele>613.0755</ele><time>2026-01-16T22:38:03.000Z</time></trkpt>
        <trkpt lat="29.198308" lon="103.650852"><ele>612.42584</ele><time>2026-01-16T22:38:08.000Z</time></trkpt>
        <trkpt lat="29.198352" lon="103.650814"><ele>612.3946</ele><time>2026-01-16T22:38:15.000Z</time></trkpt>
        <trkpt lat="29.198398" lon="103.650805"><ele>611.1671</ele><time>2026-01-16T22:38:28.000Z</time></trkpt>
        <trkpt lat="29.198437" lon="103.650787"><ele>610.8911</ele><time>2026-01-16T22:38:33.000Z</time></trkpt>
        <trkpt lat="29.198485" lon="103.650749"><ele>612.4277</ele><time>2026-01-16T22:38:40.000Z</time></trkpt>
        <trkpt lat="29.198513" lon="103.650699"><ele>612.9216</ele><time>2026-01-16T22:38:47.000Z</time></trkpt>
        <trkpt lat="29.198502" lon="103.650635"><ele>614.55664</ele><time>2026-01-16T22:38:53.000Z</time></trkpt>
        <trkpt lat="29.198495" lon="103.650579"><ele>616.65686</ele><time>2026-01-16T22:38:59.000Z</time></trkpt>
        <trkpt lat="29.198483" lon="103.650525"><ele>618.19806</ele><time>2026-01-16T22:39:04.000Z</time></trkpt>
        <trkpt lat="29.198461" lon="103.650465"><ele>618.828</ele><time>2026-01-16T22:39:10.000Z</time></trkpt>
        <trkpt lat="29.198439" lon="103.650408"><ele>619.41376</ele><time>2026-01-16T22:39:24.000Z</time></trkpt>
        <trkpt lat="29.198412" lon="103.650373"><ele>619.6048</ele><time>2026-01-16T22:39:31.000Z</time></trkpt>
        <trkpt lat="29.198374" lon="103.650334"><ele>620.16235</ele><time>2026-01-16T22:39:38.000Z</time></trkpt>
        <trkpt lat="29.198347" lon="103.650286"><ele>620.50507</ele><time>2026-01-16T22:39:44.000Z</time></trkpt>
        <trkpt lat="29.198313" lon="103.650225"><ele>620.9785</ele><time>2026-01-16T22:39:58.000Z</time></trkpt>
        <trkpt lat="29.19832" lon="103.650173"><ele>622.04694</ele><time>2026-01-16T22:40:08.000Z</time></trkpt>
        <trkpt lat="29.198325" lon="103.650121"><ele>622.666</ele><time>2026-01-16T22:40:16.000Z</time></trkpt>
        <trkpt lat="29.198333" lon="103.650069"><ele>623.2879</ele><time>2026-01-16T22:40:23.000Z</time></trkpt>
        <trkpt lat="29.198332" lon="103.650014"><ele>623.41864</ele><time>2026-01-16T22:40:31.000Z</time></trkpt>
        <trkpt lat="29.198357" lon="103.649962"><ele>624.86816</ele><time>2026-01-16T22:40:43.000Z</time></trkpt>
        <trkpt lat="29.198358" lon="103.649917"><ele>625.51404</ele><time>2026-01-16T22:40:49.000Z</time></trkpt>
        <trkpt lat="29.198367" lon="103.649862"><ele>625.3339</ele><time>2026-01-16T22:40:55.000Z</time></trkpt>
        <trkpt lat="29.198365" lon="103.649808"><ele>625.9265</ele><time>2026-01-16T22:41:01.000Z</time></trkpt>
        <trkpt lat="29.198353" lon="103.649755"><ele>627.2492</ele><time>2026-01-16T22:41:08.000Z</time></trkpt>
        <trkpt lat="29.198322" lon="103.649712"><ele>627.8689</ele><time>2026-01-16T22:41:18.000Z</time></trkpt>
        <trkpt lat="29.198313" lon="103.649659"><ele>628.7532</ele><time>2026-01-16T22:41:31.000Z</time></trkpt>
        <trkpt lat="29.198319" lon="103.649599"><ele>629.8609</ele><time>2026-01-16T22:41:43.000Z</time></trkpt>
        <trkpt lat="29.198306" lon="103.649545"><ele>631.10706</ele><time>2026-01-16T22:41:52.000Z</time></trkpt>
        <trkpt lat="29.198314" lon="103.649492"><ele>631.9095</ele><time>2026-01-16T22:41:59.000Z</time></trkpt>
        <trkpt lat="29.198306" lon="103.649436"><ele>633.5363</ele><time>2026-01-16T22:42:09.000Z</time></trkpt>
        <trkpt lat="29.198305" lon="103.649381"><ele>634.827</ele><time>2026-01-16T22:42:31.000Z</time></trkpt>
        <trkpt lat="29.198318" lon="103.64933"><ele>636.18634</ele><time>2026-01-16T22:42:38.000Z</time></trkpt>
        <trkpt lat="29.198332" lon="103.649272"><ele>637.0206</ele><time>2026-01-16T22:42:45.000Z</time></trkpt>
        <trkpt lat="29.198333" lon="103.649218"><ele>637.44446</ele><time>2026-01-16T22:42:52.000Z</time></trkpt>
        <trkpt lat="29.198322" lon="103.649163"><ele>638.67285</ele><time>2026-01-16T22:43:05.000Z</time></trkpt>
        <trkpt lat="29.198334" lon="103.649108"><ele>639.7075</ele><time>2026-01-16T22:43:17.000Z</time></trkpt>
        <trkpt lat="29.198332" lon="103.649053"><ele>640.2737</ele><time>2026-01-16T22:43:52.000Z</time></trkpt>
        <trkpt lat="29.198332" lon="103.648999"><ele>640.10126</ele><time>2026-01-16T22:44:02.000Z</time></trkpt>
        <trkpt lat="29.198327" lon="103.648941"><ele>641.8171</ele><time>2026-01-16T22:44:08.000Z</time></trkpt>
        <trkpt lat="29.198308" lon="103.648881"><ele>643.91327</ele><time>2026-01-16T22:44:16.000Z</time></trkpt>
        <trkpt lat="29.198306" lon="103.648831"><ele>644.67175</ele><time>2026-01-16T22:44:22.000Z</time></trkpt>
        <trkpt lat="29.1983" lon="103.648771"><ele>645.0592</ele><time>2026-01-16T22:44:29.000Z</time></trkpt>
        <trkpt lat="29.198297" lon="103.64872"><ele>645.4902</ele><time>2026-01-16T22:44:34.000Z</time></trkpt>
        <trkpt lat="29.198305" lon="103.648658"><ele>645.81165</ele><time>2026-01-16T22:44:45.000Z</time></trkpt>
        <trkpt lat="29.198304" lon="103.648614"><ele>645.7468</ele><time>2026-01-16T22:44:50.000Z</time></trkpt>
        <trkpt lat="29.198309" lon="103.648553"><ele>645.48346</ele><time>2026-01-16T22:44:56.000Z</time></trkpt>
        <trkpt lat="29.198315" lon="103.648495"><ele>644.9135</ele><time>2026-01-16T22:45:02.000Z</time></trkpt>
        <trkpt lat="29.198312" lon="103.648438"><ele>646.41125</ele><time>2026-01-16T22:45:12.000Z</time></trkpt>
        <trkpt lat="29.198337" lon="103.648392"><ele>647.1394</ele><time>2026-01-16T22:45:20.000Z</time></trkpt>
        <trkpt lat="29.198359" lon="103.648341"><ele>646.991</ele><time>2026-01-16T22:45:31.000Z</time></trkpt>
        <trkpt lat="29.198346" lon="103.648285"><ele>647.5558</ele><time>2026-01-16T22:45:40.000Z</time></trkpt>
        <trkpt lat="29.198329" lon="103.648232"><ele>648.2406</ele><time>2026-01-16T22:45:51.000Z</time></trkpt>
        <trkpt lat="29.198342" lon="103.648185"><ele>648.56384</ele><time>2026-01-16T22:45:58.000Z</time></trkpt>
        <trkpt lat="29.198313" lon="103.648139"><ele>647.93823</ele><time>2026-01-16T22:46:06.000Z</time></trkpt>
        <trkpt lat="29.198261" lon="103.648109"><ele>648.2033</ele><time>2026-01-16T22:46:13.000Z</time></trkpt>
        <trkpt lat="29.198208" lon="103.648091"><ele>649.3264</ele><time>2026-01-16T22:46:19.000Z</time></trkpt>
        <trkpt lat="29.198155" lon="103.648075"><ele>649.92194</ele><time>2026-01-16T22:46:26.000Z</time></trkpt>
        <trkpt lat="29.198118" lon="103.648046"><ele>650.7555</ele><time>2026-01-16T22:46:32.000Z</time></trkpt>
        <trkpt lat="29.198081" lon="103.648027"><ele>651.33325</ele><time>2026-01-16T22:46:36.000Z</time></trkpt>
        <trkpt lat="29.19803" lon="103.648006"><ele>651.8125</ele><time>2026-01-16T22:46:42.000Z</time></trkpt>
        <trkpt lat="29.19798" lon="103.647994"><ele>652.13196</ele><time>2026-01-16T22:46:48.000Z</time></trkpt>
        <trkpt lat="29.197935" lon="103.647989"><ele>652.3717</ele><time>2026-01-16T22:46:53.000Z</time></trkpt>
        <trkpt lat="29.197885" lon="103.647976"><ele>652.9201</ele><time>2026-01-16T22:46:59.000Z</time></trkpt>
        <trkpt lat="29.197837" lon="103.647963"><ele>653.87354</ele><time>2026-01-16T22:47:07.000Z</time></trkpt>
        <trkpt lat="29.197784" lon="103.647965"><ele>654.1002</ele><time>2026-01-16T22:47:15.000Z</time></trkpt>
        <trkpt lat="29.197736" lon="103.647982"><ele>654.9123</ele><time>2026-01-16T22:47:23.000Z</time></trkpt>
        <trkpt lat="29.197681" lon="103.647994"><ele>656.29755</ele><time>2026-01-16T22:47:32.000Z</time></trkpt>
        <trkpt lat="29.197647" lon="103.647951"><ele>656.0192</ele><time>2026-01-16T22:47:45.000Z</time></trkpt>
        <trkpt lat="29.197626" lon="103.647993"><ele>656.11835</ele><time>2026-01-16T22:48:06.000Z</time></trkpt>
        <trkpt lat="29.197577" lon="103.647998"><ele>656.1064</ele><time>2026-01-16T22:48:52.000Z</time></trkpt>
        <trkpt lat="29.197538" lon="103.647964"><ele>656.355</ele><time>2026-01-16T22:48:58.000Z</time></trkpt>
        <trkpt lat="29.197491" lon="103.647944"><ele>655.71063</ele><time>2026-01-16T22:49:03.000Z</time></trkpt>
        <trkpt lat="29.197452" lon="103.647955"><ele>655.04297</ele><time>2026-01-16T22:49:06.000Z</time></trkpt>
        <trkpt lat="29.197389" lon="103.647976"><ele>655.99243</ele><time>2026-01-16T22:49:14.000Z</time></trkpt>
        <trkpt lat="29.19735" lon="103.647956"><ele>656.9505</ele><time>2026-01-16T22:49:21.000Z</time></trkpt>
        <trkpt lat="29.197308" lon="103.647932"><ele>657.4966</ele><time>2026-01-16T22:49:27.000Z</time></trkpt>
        <trkpt lat="29.197263" lon="103.64791"><ele>657.85675</ele><time>2026-01-16T22:49:34.000Z</time></trkpt>
        <trkpt lat="29.197212" lon="103.647887"><ele>657.9789</ele><time>2026-01-16T22:49:42.000Z</time></trkpt>
        <trkpt lat="29.197174" lon="103.647863"><ele>658.3707</ele><time>2026-01-16T22:49:47.000Z</time></trkpt>
        <trkpt lat="29.197127" lon="103.64784"><ele>659.19324</ele><time>2026-01-16T22:49:53.000Z</time></trkpt>
        <trkpt lat="29.197085" lon="103.647813"><ele>659.3183</ele><time>2026-01-16T22:49:58.000Z</time></trkpt>
        <trkpt lat="29.197044" lon="103.647773"><ele>659.46716</ele><time>2026-01-16T22:50:05.000Z</time></trkpt>
        <trkpt lat="29.196997" lon="103.64775"><ele>659.3812</ele><time>2026-01-16T22:50:16.000Z</time></trkpt>
        <trkpt lat="29.196958" lon="103.647732"><ele>659.3444</ele><time>2026-01-16T22:50:23.000Z</time></trkpt>
        <trkpt lat="29.196921" lon="103.647701"><ele>659.4297</ele><time>2026-01-16T22:50:29.000Z</time></trkpt>
        <trkpt lat="29.196869" lon="103.647677"><ele>659.24194</ele><time>2026-01-16T22:50:39.000Z</time></trkpt>
        <trkpt lat="29.196835" lon="103.647644"><ele>659.3684</ele><time>2026-01-16T22:50:49.000Z</time></trkpt>
        <trkpt lat="29.196794" lon="103.647627"><ele>659.0889</ele><time>2026-01-16T22:50:55.000Z</time></trkpt>
        <trkpt lat="29.196744" lon="103.647611"><ele>659.63934</ele><time>2026-01-16T22:51:07.000Z</time></trkpt>
        <trkpt lat="29.196703" lon="103.647579"><ele>659.4248</ele><time>2026-01-16T22:51:15.000Z</time></trkpt>
        <trkpt lat="29.196661" lon="103.647548"><ele>659.0976</ele><time>2026-01-16T22:51:22.000Z</time></trkpt>
        <trkpt lat="29.196623" lon="103.647512"><ele>658.35254</ele><time>2026-01-16T22:51:32.000Z</time></trkpt>
        <trkpt lat="29.19658" lon="103.647481"><ele>659.979</ele><time>2026-01-16T22:51:41.000Z</time></trkpt>
        <trkpt lat="29.196529" lon="103.647455"><ele>660.2142</ele><time>2026-01-16T22:51:46.000Z</time></trkpt>
        <trkpt lat="29.196468" lon="103.647404"><ele>659.5969</ele><time>2026-01-16T22:51:57.000Z</time></trkpt>
        <trkpt lat="29.196438" lon="103.64739"><ele>659.67834</ele><time>2026-01-16T22:51:59.000Z</time></trkpt>
        <trkpt lat="29.196392" lon="103.647374"><ele>659.6092</ele><time>2026-01-16T22:52:02.000Z</time></trkpt>
        <trkpt lat="29.196413" lon="103.647373"><ele>659.2519</ele><time>2026-01-16T22:52:18.000Z</time></trkpt>
        <trkpt lat="29.196462" lon="103.647378"><ele>659.1487</ele><time>2026-01-16T22:52:23.000Z</time></trkpt>
        <trkpt lat="29.196421" lon="103.647366"><ele>658.5559</ele><time>2026-01-16T22:52:42.000Z</time></trkpt>
        <trkpt lat="29.196373" lon="103.647363"><ele>658.93085</ele><time>2026-01-16T22:52:47.000Z</time></trkpt>
        <trkpt lat="29.196323" lon="103.647371"><ele>659.2427</ele><time>2026-01-16T22:52:58.000Z</time></trkpt>
        <trkpt lat="29.196284" lon="103.647339"><ele>658.9264</ele><time>2026-01-16T22:53:13.000Z</time></trkpt>
        <trkpt lat="29.196244" lon="103.647316"><ele>658.4824</ele><time>2026-01-16T22:53:20.000Z</time></trkpt>
        <trkpt lat="29.196207" lon="103.647306"><ele>658.39886</ele><time>2026-01-16T22:53:23.000Z</time></trkpt>
        <trkpt lat="29.19615" lon="103.647284"><ele>658.3869</ele><time>2026-01-16T22:53:34.000Z</time></trkpt>
        <trkpt lat="29.196106" lon="103.647279"><ele>659.6742</ele><time>2026-01-16T22:53:41.000Z</time></trkpt>
        <trkpt lat="29.196057" lon="103.647254"><ele>661.8366</ele><time>2026-01-16T22:53:50.000Z</time></trkpt>
        <trkpt lat="29.196013" lon="103.64723"><ele>661.2392</ele><time>2026-01-16T22:53:56.000Z</time></trkpt>
        <trkpt lat="29.195969" lon="103.647223"><ele>660.4172</ele><time>2026-01-16T22:54:00.000Z</time></trkpt>
        <trkpt lat="29.19593" lon="103.647192"><ele>660.3079</ele><time>2026-01-16T22:54:05.000Z</time></trkpt>
        <trkpt lat="29.195892" lon="103.647149"><ele>660.31384</ele><time>2026-01-16T22:54:12.000Z</time></trkpt>
        <trkpt lat="29.195846" lon="103.64712"><ele>660.0576</ele><time>2026-01-16T22:54:20.000Z</time></trkpt>
        <trkpt lat="29.195811" lon="103.647092"><ele>660.0236</ele><time>2026-01-16T22:54:25.000Z</time></trkpt>
        <trkpt lat="29.195758" lon="103.647065"><ele>660.0656</ele><time>2026-01-16T22:54:32.000Z</time></trkpt>
        <trkpt lat="29.19571" lon="103.647043"><ele>660.44385</ele><time>2026-01-16T22:54:38.000Z</time></trkpt>
        <trkpt lat="29.195665" lon="103.64701"><ele>660.64996</ele><time>2026-01-16T22:54:47.000Z</time></trkpt>
        <trkpt lat="29.195625" lon="103.646997"><ele>661.1857</ele><time>2026-01-16T22:54:52.000Z</time></trkpt>
        <trkpt lat="29.19556" lon="103.646973"><ele>661.2082</ele><time>2026-01-16T22:54:59.000Z</time></trkpt>
        <trkpt lat="29.195517" lon="103.646961"><ele>661.4786</ele><time>2026-01-16T22:55:03.000Z</time></trkpt>
        <trkpt lat="29.195455" lon="103.646939"><ele>662.6802</ele><time>2026-01-16T22:55:09.000Z</time></trkpt>
        <trkpt lat="29.195414" lon="103.646916"><ele>663.4847</ele><time>2026-01-16T22:55:12.000Z</time></trkpt>
        <trkpt lat="29.195361" lon="103.64688"><ele>664.0716</ele><time>2026-01-16T22:55:19.000Z</time></trkpt>
        <trkpt lat="29.195308" lon="103.646849"><ele>663.1577</ele><time>2026-01-16T22:55:26.000Z</time></trkpt>
        <trkpt lat="29.195259" lon="103.646834"><ele>661.17896</ele><time>2026-01-16T22:55:38.000Z</time></trkpt>
        <trkpt lat="29.19522" lon="103.646805"><ele>660.35077</ele><time>2026-01-16T22:55:47.000Z</time></trkpt>
        <trkpt lat="29.195171" lon="103.646788"><ele>659.84985</ele><time>2026-01-16T22:55:54.000Z</time></trkpt>
        <trkpt lat="29.195126" lon="103.646767"><ele>660.61847</ele><time>2026-01-16T22:55:59.000Z</time></trkpt>
        <trkpt lat="29.195085" lon="103.646743"><ele>660.639</ele><time>2026-01-16T22:56:04.000Z</time></trkpt>
        <trkpt lat="29.195032" lon="103.64672"><ele>660.70996</ele><time>2026-01-16T22:56:09.000Z</time></trkpt>
        <trkpt lat="29.194976" lon="103.64669"><ele>660.917</ele><time>2026-01-16T22:56:14.000Z</time></trkpt>
        <trkpt lat="29.19493" lon="103.646667"><ele>661.171</ele><time>2026-01-16T22:56:18.000Z</time></trkpt>
        <trkpt lat="29.194883" lon="103.646638"><ele>661.3447</ele><time>2026-01-16T22:56:25.000Z</time></trkpt>
        <trkpt lat="29.194838" lon="103.64662"><ele>663.3419</ele><time>2026-01-16T22:56:32.000Z</time></trkpt>
        <trkpt lat="29.194797" lon="103.646597"><ele>663.3443</ele><time>2026-01-16T22:56:41.000Z</time></trkpt>
        <trkpt lat="29.194757" lon="103.646577"><ele>662.89703</ele><time>2026-01-16T22:56:49.000Z</time></trkpt>
        <trkpt lat="29.194714" lon="103.64655"><ele>663.15857</ele><time>2026-01-16T22:56:58.000Z</time></trkpt>
        <trkpt lat="29.19466" lon="103.646534"><ele>663.942</ele><time>2026-01-16T22:57:07.000Z</time></trkpt>
        <trkpt lat="29.194607" lon="103.646521"><ele>664.1209</ele><time>2026-01-16T22:57:13.000Z</time></trkpt>
        <trkpt lat="29.194556" lon="103.646505"><ele>663.97534</ele><time>2026-01-16T22:57:18.000Z</time></trkpt>
        <trkpt lat="29.19451" lon="103.646498"><ele>664.10944</ele><time>2026-01-16T22:57:22.000Z</time></trkpt>
        <trkpt lat="29.194452" lon="103.646497"><ele>664.8693</ele><time>2026-01-16T22:57:27.000Z</time></trkpt>
        <trkpt lat="29.194399" lon="103.646476"><ele>665.22235</ele><time>2026-01-16T22:57:37.000Z</time></trkpt>
        <trkpt lat="29.194357" lon="103.646472"><ele>665.6458</ele><time>2026-01-16T22:57:43.000Z</time></trkpt>
        <trkpt lat="29.194308" lon="103.64646"><ele>665.3853</ele><time>2026-01-16T22:57:48.000Z</time></trkpt>
        <trkpt lat="29.194257" lon="103.646449"><ele>665.1455</ele><time>2026-01-16T22:57:52.000Z</time></trkpt>
        <trkpt lat="29.194202" lon="103.646446"><ele>664.5132</ele><time>2026-01-16T22:57:57.000Z</time></trkpt>
        <trkpt lat="29.194159" lon="103.646432"><ele>665.0667</ele><time>2026-01-16T22:58:01.000Z</time></trkpt>
        <trkpt lat="29.194114" lon="103.64641"><ele>665.8816</ele><time>2026-01-16T22:58:05.000Z</time></trkpt>
        <trkpt lat="29.194055" lon="103.646371"><ele>666.3934</ele><time>2026-01-16T22:58:11.000Z</time></trkpt>
        <trkpt lat="29.193996" lon="103.646354"><ele>665.2816</ele><time>2026-01-16T22:58:19.000Z</time></trkpt>
        <trkpt lat="29.19396" lon="103.646334"><ele>664.1158</ele><time>2026-01-16T22:58:23.000Z</time></trkpt>
        <trkpt lat="29.193909" lon="103.646313"><ele>663.3081</ele><time>2026-01-16T22:58:28.000Z</time></trkpt>
        <trkpt lat="29.193863" lon="103.646291"><ele>663.71014</ele><time>2026-01-16T22:58:32.000Z</time></trkpt>
        <trkpt lat="29.193805" lon="103.646275"><ele>662.8305</ele><time>2026-01-16T22:58:37.000Z</time></trkpt>
        <trkpt lat="29.193763" lon="103.646297"><ele>661.9067</ele><time>2026-01-16T22:58:41.000Z</time></trkpt>
        <trkpt lat="29.193724" lon="103.64633"><ele>661.798</ele><time>2026-01-16T22:58:45.000Z</time></trkpt>
        <trkpt lat="29.193675" lon="103.646371"><ele>662.66296</ele><time>2026-01-16T22:58:52.000Z</time></trkpt>
        <trkpt lat="29.193635" lon="103.646393"><ele>663.39185</ele><time>2026-01-16T22:58:58.000Z</time></trkpt>
        <trkpt lat="29.193595" lon="103.646424"><ele>663.7238</ele><time>2026-01-16T22:59:06.000Z</time></trkpt>
        <trkpt lat="29.193558" lon="103.646444"><ele>663.8362</ele><time>2026-01-16T22:59:11.000Z</time></trkpt>
        <trkpt lat="29.193508" lon="103.646456"><ele>664.0737</ele><time>2026-01-16T22:59:17.000Z</time></trkpt>
        <trkpt lat="29.193461" lon="103.646459"><ele>663.8263</ele><time>2026-01-16T22:59:22.000Z</time></trkpt>
        <trkpt lat="29.193415" lon="103.646454"><ele>664.1658</ele><time>2026-01-16T22:59:27.000Z</time></trkpt>
        <trkpt lat="29.193358" lon="103.646451"><ele>663.76337</ele><time>2026-01-16T22:59:40.000Z</time></trkpt>
        <trkpt lat="29.193318" lon="103.646442"><ele>664.254</ele><time>2026-01-16T22:59:48.000Z</time></trkpt>
        <trkpt lat="29.193284" lon="103.646407"><ele>664.81665</ele><time>2026-01-16T22:59:55.000Z</time></trkpt>
        <trkpt lat="29.193267" lon="103.646352"><ele>665.7308</ele><time>2026-01-16T23:00:00.000Z</time></trkpt>
        <trkpt lat="29.193245" lon="103.646308"><ele>666.03595</ele><time>2026-01-16T23:00:04.000Z</time></trkpt>
        <trkpt lat="29.193224" lon="103.646248"><ele>666.06195</ele><time>2026-01-16T23:00:09.000Z</time></trkpt>
        <trkpt lat="29.193245" lon="103.646192"><ele>663.44617</ele><time>2026-01-16T23:00:18.000Z</time></trkpt>
        <trkpt lat="29.19327" lon="103.646143"><ele>661.0065</ele><time>2026-01-16T23:00:25.000Z</time></trkpt>
        <trkpt lat="29.193243" lon="103.646102"><ele>660.52313</ele><time>2026-01-16T23:00:30.000Z</time></trkpt>
        <trkpt lat="29.193195" lon="103.646069"><ele>660.3253</ele><time>2026-01-16T23:00:35.000Z</time></trkpt>
        <trkpt lat="29.193152" lon="103.646026"><ele>660.46216</ele><time>2026-01-16T23:00:41.000Z</time></trkpt>
        <trkpt lat="29.19312" lon="103.645982"><ele>660.6985</ele><time>2026-01-16T23:00:46.000Z</time></trkpt>
        <trkpt lat="29.193089" lon="103.645934"><ele>661.0303</ele><time>2026-01-16T23:00:56.000Z</time></trkpt>
        <trkpt lat="29.193067" lon="103.645887"><ele>660.0292</ele><time>2026-01-16T23:01:11.000Z</time></trkpt>
        <trkpt lat="29.193064" lon="103.645844"><ele>659.47754</ele><time>2026-01-16T23:01:15.000Z</time></trkpt>
        <trkpt lat="29.193046" lon="103.645795"><ele>659.5698</ele><time>2026-01-16T23:01:19.000Z</time></trkpt>
        <trkpt lat="29.193031" lon="103.645717"><ele>652.1583</ele><time>2026-01-16T23:02:14.000Z</time></trkpt>
        <trkpt lat="29.193017" lon="103.645692"><ele>651.3166</ele><time>2026-01-16T23:02:19.000Z</time></trkpt>
        <trkpt lat="29.192979" lon="103.64565"><ele>651.55316</ele><time>2026-01-16T23:02:24.000Z</time></trkpt>
        <trkpt lat="29.192932" lon="103.645604"><ele>651.9535</ele><time>2026-01-16T23:02:31.000Z</time></trkpt>
        <trkpt lat="29.19288" lon="103.645588"><ele>654.4529</ele><time>2026-01-16T23:02:38.000Z</time></trkpt>
        <trkpt lat="29.192833" lon="103.645579"><ele>657.3378</ele><time>2026-01-16T23:02:46.000Z</time></trkpt>
        <trkpt lat="29.192793" lon="103.64557"><ele>658.8655</ele><time>2026-01-16T23:02:51.000Z</time></trkpt>
        <trkpt lat="29.192743" lon="103.645554"><ele>660.5647</ele><time>2026-01-16T23:02:57.000Z</time></trkpt>
        <trkpt lat="29.192705" lon="103.645529"><ele>661.7371</ele><time>2026-01-16T23:03:01.000Z</time></trkpt>
        <trkpt lat="29.192673" lon="103.645514"><ele>661.83386</ele><time>2026-01-16T23:03:03.000Z</time></trkpt>
        <trkpt lat="29.192628" lon="103.645451"><ele>662.94775</ele><time>2026-01-16T23:03:09.000Z</time></trkpt>
        <trkpt lat="29.19259" lon="103.645406"><ele>663.0898</ele><time>2026-01-16T23:03:14.000Z</time></trkpt>
        <trkpt lat="29.192564" lon="103.64536"><ele>663.3663</ele><time>2026-01-16T23:03:19.000Z</time></trkpt>
        <trkpt lat="29.192529" lon="103.645312"><ele>662.2839</ele><time>2026-01-16T23:03:25.000Z</time></trkpt>
        <trkpt lat="29.192485" lon="103.645285"><ele>663.77386</ele><time>2026-01-16T23:03:33.000Z</time></trkpt>
        <trkpt lat="29.192448" lon="103.645265"><ele>664.31085</ele><time>2026-01-16T23:03:38.000Z</time></trkpt>
        <trkpt lat="29.192397" lon="103.645257"><ele>664.82227</ele><time>2026-01-16T23:03:43.000Z</time></trkpt>
        <trkpt lat="29.192349" lon="103.645243"><ele>665.47253</ele><time>2026-01-16T23:03:48.000Z</time></trkpt>
        <trkpt lat="29.192314" lon="103.645214"><ele>666.60815</ele><time>2026-01-16T23:03:52.000Z</time></trkpt>
        <trkpt lat="29.192277" lon="103.645183"><ele>667.43066</ele><time>2026-01-16T23:03:56.000Z</time></trkpt>
        <trkpt lat="29.192236" lon="103.645137"><ele>667.94196</ele><time>2026-01-16T23:04:03.000Z</time></trkpt>
        <trkpt lat="29.192196" lon="103.645101"><ele>666.3685</ele><time>2026-01-16T23:04:12.000Z</time></trkpt>
        <trkpt lat="29.192196" lon="103.645046"><ele>666.4248</ele><time>2026-01-16T23:04:31.000Z</time></trkpt>
        <trkpt lat="29.192155" lon="103.645015"><ele>665.2607</ele><time>2026-01-16T23:04:47.000Z</time></trkpt>
        <trkpt lat="29.192115" lon="103.645003"><ele>665.04193</ele><time>2026-01-16T23:04:51.000Z</time></trkpt>
        <trkpt lat="29.192093" lon="103.644951"><ele>664.4711</ele><time>2026-01-16T23:05:03.000Z</time></trkpt>
        <trkpt lat="29.192076" lon="103.644902"><ele>663.49194</ele><time>2026-01-16T23:05:16.000Z</time></trkpt>
        <trkpt lat="29.192017" lon="103.644897"><ele>666.0343</ele><time>2026-01-16T23:05:28.000Z</time></trkpt>
        <trkpt lat="29.192035" lon="103.644855"><ele>663.28827</ele><time>2026-01-16T23:05:40.000Z</time></trkpt>
        <trkpt lat="29.192051" lon="103.644896"><ele>657.67</ele><time>2026-01-16T23:05:50.000Z</time></trkpt>
        <trkpt lat="29.192026" lon="103.64495"><ele>656.77997</ele><time>2026-01-16T23:06:05.000Z</time></trkpt>
        <trkpt lat="29.192013" lon="103.64489"><ele>660.65497</ele><time>2026-01-16T23:06:14.000Z</time></trkpt>
        <trkpt lat="29.192017" lon="103.644834"><ele>659.0618</ele><time>2026-01-16T23:06:20.000Z</time></trkpt>
        <trkpt lat="29.192002" lon="103.644844"><ele>650.5382</ele><time>2026-01-16T23:06:33.000Z</time></trkpt>
        <trkpt lat="29.191991" lon="103.644862"><ele>635.6409</ele><time>2026-01-16T23:07:03.000Z</time></trkpt>
        <trkpt lat="29.191946" lon="103.644864"><ele>631.522</ele><time>2026-01-16T23:07:11.000Z</time></trkpt>
        <trkpt lat="29.191899" lon="103.644843"><ele>626.87836</ele><time>2026-01-16T23:07:31.000Z</time></trkpt>
        <trkpt lat="29.191856" lon="103.644828"><ele>623.8083</ele><time>2026-01-16T23:07:43.000Z</time></trkpt>
        <trkpt lat="29.191828" lon="103.644783"><ele>623.0393</ele><time>2026-01-16T23:08:06.000Z</time></trkpt>
        <trkpt lat="29.191792" lon="103.644827"><ele>622.7731</ele><time>2026-01-16T23:08:17.000Z</time></trkpt>
        <trkpt lat="29.191807" lon="103.64479"><ele>619.4445</ele><time>2026-01-16T23:08:26.000Z</time></trkpt>
        <trkpt lat="29.191836" lon="103.644744"><ele>618.35187</ele><time>2026-01-16T23:08:32.000Z</time></trkpt>
        <trkpt lat="29.191878" lon="103.644758"><ele>617.7728</ele><time>2026-01-16T23:08:36.000Z</time></trkpt>
        <trkpt lat="29.191929" lon="103.644801"><ele>614.8509</ele><time>2026-01-16T23:08:59.000Z</time></trkpt>
        <trkpt lat="29.191971" lon="103.644825"><ele>614.3607</ele><time>2026-01-16T23:09:15.000Z</time></trkpt>
        <trkpt lat="29.191983" lon="103.644875"><ele>612.4177</ele><time>2026-01-16T23:09:25.000Z</time></trkpt>
        <trkpt lat="29.192018" lon="103.644854"><ele>610.9702</ele><time>2026-01-16T23:09:39.000Z</time></trkpt>
        <trkpt lat="29.192065" lon="103.644853"><ele>612.3389</ele><time>2026-01-16T23:09:56.000Z</time></trkpt>
        <trkpt lat="29.192104" lon="103.644825"><ele>605.113</ele><time>2026-01-16T23:10:28.000Z</time></trkpt>
        <trkpt lat="29.192144" lon="103.644853"><ele>598.9094</ele><time>2026-01-16T23:11:40.000Z</time></trkpt>
        <trkpt lat="29.192187" lon="103.644838"><ele>598.57135</ele><time>2026-01-16T23:12:00.000Z</time></trkpt>
        <trkpt lat="29.192233" lon="103.644843"><ele>594.741</ele><time>2026-01-16T23:12:38.000Z</time></trkpt>
        <trkpt lat="29.192279" lon="103.644861"><ele>593.20013</ele><time>2026-01-16T23:12:57.000Z</time></trkpt>
        <trkpt lat="29.192252" lon="103.644909"><ele>591.1184</ele><time>2026-01-16T23:13:32.000Z</time></trkpt>
        <trkpt lat="29.192273" lon="103.644942"><ele>589.25024</ele><time>2026-01-16T23:13:38.000Z</time></trkpt>
        <trkpt lat="29.192331" lon="103.644951"><ele>584.6107</ele><time>2026-01-16T23:14:05.000Z</time></trkpt>
        <trkpt lat="29.192365" lon="103.644903"><ele>582.79565</ele><time>2026-01-16T23:14:40.000Z</time></trkpt>
        <trkpt lat="29.192408" lon="103.644911"><ele>582.20514</ele><time>2026-01-16T23:14:55.000Z</time></trkpt>
        <trkpt lat="29.192458" lon="103.644902"><ele>577.57446</ele><time>2026-01-16T23:15:15.000Z</time></trkpt>
        <trkpt lat="29.1925" lon="103.644884"><ele>576.831</ele><time>2026-01-16T23:15:31.000Z</time></trkpt>
        <trkpt lat="29.192531" lon="103.644844"><ele>575.7131</ele><time>2026-01-16T23:15:53.000Z</time></trkpt>
        <trkpt lat="29.192568" lon="103.644813"><ele>571.07874</ele><time>2026-01-16T23:16:23.000Z</time></trkpt>
        <trkpt lat="29.19261" lon="103.644823"><ele>567.5574</ele><time>2026-01-16T23:16:33.000Z</time></trkpt>
        <trkpt lat="29.192657" lon="103.644811"><ele>565.497</ele><time>2026-01-16T23:16:58.000Z</time></trkpt>
        <trkpt lat="29.192697" lon="103.644808"><ele>563.6313</ele><time>2026-01-16T23:17:07.000Z</time></trkpt>
        <trkpt lat="29.192748" lon="103.644799"><ele>558.07416</ele><time>2026-01-16T23:17:33.000Z</time></trkpt>
        <trkpt lat="29.192792" lon="103.644786"><ele>557.3714</ele><time>2026-01-16T23:18:00.000Z</time></trkpt>
        <trkpt lat="29.192833" lon="103.644764"><ele>555.33746</ele><time>2026-01-16T23:18:14.000Z</time></trkpt>
        <trkpt lat="29.192862" lon="103.644722"><ele>557.0007</ele><time>2026-01-16T23:18:28.000Z</time></trkpt>
        <trkpt lat="29.192918" lon="103.644736"><ele>555.574</ele><time>2026-01-16T23:18:43.000Z</time></trkpt>
        <trkpt lat="29.192965" lon="103.644759"><ele>552.90405</ele><time>2026-01-16T23:18:50.000Z</time></trkpt>
        <trkpt lat="29.193019" lon="103.644765"><ele>552.057</ele><time>2026-01-16T23:18:58.000Z</time></trkpt>
        <trkpt lat="29.193064" lon="103.644753"><ele>552.35345</ele><time>2026-01-16T23:19:05.000Z</time></trkpt>
        <trkpt lat="29.193108" lon="103.64476"><ele>552.95264</ele><time>2026-01-16T23:19:13.000Z</time></trkpt>
        <trkpt lat="29.193158" lon="103.644763"><ele>552.7619</ele><time>2026-01-16T23:19:21.000Z</time></trkpt>
        <trkpt lat="29.193208" lon="103.644757"><ele>548.102</ele><time>2026-01-16T23:19:39.000Z</time></trkpt>
        <trkpt lat="29.193253" lon="103.644747"><ele>545.4797</ele><time>2026-01-16T23:19:51.000Z</time></trkpt>
        <trkpt lat="29.193295" lon="103.644719"><ele>543.3287</ele><time>2026-01-16T23:20:01.000Z</time></trkpt>
        <trkpt lat="29.193341" lon="103.644709"><ele>542.9876</ele><time>2026-01-16T23:20:12.000Z</time></trkpt>
        <trkpt lat="29.193384" lon="103.644696"><ele>541.16956</ele><time>2026-01-16T23:20:20.000Z</time></trkpt>
        <trkpt lat="29.193421" lon="103.644648"><ele>539.3959</ele><time>2026-01-16T23:20:31.000Z</time></trkpt>
        <trkpt lat="29.193467" lon="103.644606"><ele>538.81635</ele><time>2026-01-16T23:20:44.000Z</time></trkpt>
        <trkpt lat="29.193513" lon="103.644592"><ele>537.551</ele><time>2026-01-16T23:20:56.000Z</time></trkpt>
        <trkpt lat="29.193526" lon="103.644541"><ele>532.7188</ele><time>2026-01-16T23:21:09.000Z</time></trkpt>
        <trkpt lat="29.19356" lon="103.644504"><ele>529.8644</ele><time>2026-01-16T23:21:34.000Z</time></trkpt>
        <trkpt lat="29.193569" lon="103.644449"><ele>528.2503</ele><time>2026-01-16T23:21:55.000Z</time></trkpt>
        <trkpt lat="29.193592" lon="103.644402"><ele>524.4296</ele><time>2026-01-16T23:22:14.000Z</time></trkpt>
        <trkpt lat="29.19359" lon="103.644351"><ele>522.78973</ele><time>2026-01-16T23:22:28.000Z</time></trkpt>
        <trkpt lat="29.193571" lon="103.644285"><ele>518.2452</ele><time>2026-01-16T23:22:49.000Z</time></trkpt>
        <trkpt lat="29.193553" lon="103.644235"><ele>515.35065</ele><time>2026-01-16T23:23:05.000Z</time></trkpt>
        <trkpt lat="29.193558" lon="103.644183"><ele>512.07574</ele><time>2026-01-16T23:23:17.000Z</time></trkpt>
        <trkpt lat="29.193604" lon="103.644168"><ele>510.33282</ele><time>2026-01-16T23:23:25.000Z</time></trkpt>
        <trkpt lat="29.193655" lon="103.644151"><ele>507.9373</ele><time>2026-01-16T23:23:55.000Z</time></trkpt>
        <trkpt lat="29.193689" lon="103.644124"><ele>507.51355</ele><time>2026-01-16T23:24:06.000Z</time></trkpt>
        <trkpt lat="29.193681" lon="103.644065"><ele>505.50012</ele><time>2026-01-16T23:24:54.000Z</time></trkpt>
        <trkpt lat="29.193716" lon="103.644095"><ele>504.05664</ele><time>2026-01-16T23:25:04.000Z</time></trkpt>
        <trkpt lat="29.193758" lon="103.644109"><ele>503.78058</ele><time>2026-01-16T23:25:08.000Z</time></trkpt>
        <trkpt lat="29.193813" lon="103.644118"><ele>504.0267</ele><time>2026-01-16T23:25:13.000Z</time></trkpt>
        <trkpt lat="29.193857" lon="103.644125"><ele>505.07336</ele><time>2026-01-16T23:25:16.000Z</time></trkpt>
        <trkpt lat="29.193909" lon="103.644146"><ele>504.7638</ele><time>2026-01-16T23:25:20.000Z</time></trkpt>
        <trkpt lat="29.193957" lon="103.644166"><ele>504.13193</ele><time>2026-01-16T23:25:24.000Z</time></trkpt>
        <trkpt lat="29.194002" lon="103.644185"><ele>503.8231</ele><time>2026-01-16T23:25:28.000Z</time></trkpt>
        <trkpt lat="29.194042" lon="103.644214"><ele>503.06827</ele><time>2026-01-16T23:25:32.000Z</time></trkpt>
        <trkpt lat="29.194083" lon="103.644237"><ele>502.21808</ele><time>2026-01-16T23:25:36.000Z</time></trkpt>
        <trkpt lat="29.194121" lon="103.64426"><ele>502.5242</ele><time>2026-01-16T23:25:39.000Z</time></trkpt>
        <trkpt lat="29.194172" lon="103.644285"><ele>502.46796</ele><time>2026-01-16T23:25:43.000Z</time></trkpt>
        <trkpt lat="29.194221" lon="103.644302"><ele>501.98984</ele><time>2026-01-16T23:25:47.000Z</time></trkpt>
        <trkpt lat="29.194269" lon="103.644326"><ele>501.0612</ele><time>2026-01-16T23:25:51.000Z</time></trkpt>
        <trkpt lat="29.194314" lon="103.644353"><ele>500.10754</ele><time>2026-01-16T23:25:55.000Z</time></trkpt>
        <trkpt lat="29.194362" lon="103.644377"><ele>499.69272</ele><time>2026-01-16T23:25:59.000Z</time></trkpt>
        <trkpt lat="29.194412" lon="103.644404"><ele>499.00003</ele><time>2026-01-16T23:26:04.000Z</time></trkpt>
        <trkpt lat="29.19446" lon="103.644426"><ele>497.3737</ele><time>2026-01-16T23:26:14.000Z</time></trkpt>
        <trkpt lat="29.194488" lon="103.644439"><ele>497.10233</ele><time>2026-01-16T23:26:17.000Z</time></trkpt>
        <trkpt lat="29.194532" lon="103.644457"><ele>497.27853</ele><time>2026-01-16T23:26:21.000Z</time></trkpt>
        <trkpt lat="29.194583" lon="103.644487"><ele>497.3529</ele><time>2026-01-16T23:26:26.000Z</time></trkpt>
        <trkpt lat="29.194635" lon="103.644517"><ele>498.15775</ele><time>2026-01-16T23:26:35.000Z</time></trkpt>
        <trkpt lat="29.194668" lon="103.644533"><ele>497.6662</ele><time>2026-01-16T23:26:39.000Z</time></trkpt>
        <trkpt lat="29.194713" lon="103.644556"><ele>497.7623</ele><time>2026-01-16T23:26:43.000Z</time></trkpt>
        <trkpt lat="29.194764" lon="103.64458"><ele>496.97638</ele><time>2026-01-16T23:26:47.000Z</time></trkpt>
        <trkpt lat="29.194819" lon="103.644601"><ele>496.04373</ele><time>2026-01-16T23:26:51.000Z</time></trkpt>
        <trkpt lat="29.194868" lon="103.644624"><ele>495.21048</ele><time>2026-01-16T23:26:55.000Z</time></trkpt>
        <trkpt lat="29.194914" lon="103.644644"><ele>494.58154</ele><time>2026-01-16T23:26:59.000Z</time></trkpt>
        <trkpt lat="29.194958" lon="103.644664"><ele>493.88403</ele><time>2026-01-16T23:27:03.000Z</time></trkpt>
        <trkpt lat="29.195013" lon="103.644689"><ele>493.98642</ele><time>2026-01-16T23:27:08.000Z</time></trkpt>
        <trkpt lat="29.19507" lon="103.64471"><ele>493.83868</ele><time>2026-01-16T23:27:13.000Z</time></trkpt>
        <trkpt lat="29.195121" lon="103.644728"><ele>494.516</ele><time>2026-01-16T23:27:18.000Z</time></trkpt>
        <trkpt lat="29.195162" lon="103.644754"><ele>494.8947</ele><time>2026-01-16T23:27:23.000Z</time></trkpt>
        <trkpt lat="29.195207" lon="103.644782"><ele>494.74686</ele><time>2026-01-16T23:27:28.000Z</time></trkpt>
        <trkpt lat="29.195246" lon="103.644809"><ele>494.39038</ele><time>2026-01-16T23:27:32.000Z</time></trkpt>
        <trkpt lat="29.195293" lon="103.644835"><ele>494.3431</ele><time>2026-01-16T23:27:37.000Z</time></trkpt>
        <trkpt lat="29.19534" lon="103.644857"><ele>494.43445</ele><time>2026-01-16T23:27:42.000Z</time></trkpt>
        <trkpt lat="29.195389" lon="103.644881"><ele>494.22842</ele><time>2026-01-16T23:27:47.000Z</time></trkpt>
        <trkpt lat="29.195435" lon="103.644904"><ele>493.98785</ele><time>2026-01-16T23:27:52.000Z</time></trkpt>
        <trkpt lat="29.195481" lon="103.644928"><ele>493.54926</ele><time>2026-01-16T23:27:57.000Z</time></trkpt>
        <trkpt lat="29.195521" lon="103.644947"><ele>493.38345</ele><time>2026-01-16T23:28:01.000Z</time></trkpt>
        <trkpt lat="29.195574" lon="103.644972"><ele>493.16113</ele><time>2026-01-16T23:28:07.000Z</time></trkpt>
        <trkpt lat="29.195615" lon="103.644993"><ele>493.17993</ele><time>2026-01-16T23:28:12.000Z</time></trkpt>
        <trkpt lat="29.195668" lon="103.645007"><ele>493.60577</ele><time>2026-01-16T23:28:24.000Z</time></trkpt>
        <trkpt lat="29.19572" lon="103.645018"><ele>496.21292</ele><time>2026-01-16T23:28:32.000Z</time></trkpt>
        <trkpt lat="29.195762" lon="103.645034"><ele>497.34775</ele><time>2026-01-16T23:28:35.000Z</time></trkpt>
        <trkpt lat="29.195811" lon="103.645048"><ele>497.36063</ele><time>2026-01-16T23:28:37.000Z</time></trkpt>
        <trkpt lat="29.195875" lon="103.645067"><ele>497.3237</ele><time>2026-01-16T23:28:40.000Z</time></trkpt>
        <trkpt lat="29.19594" lon="103.645095"><ele>497.96158</ele><time>2026-01-16T23:28:44.000Z</time></trkpt>
        <trkpt lat="29.195978" lon="103.645144"><ele>498.64197</ele><time>2026-01-16T23:28:50.000Z</time></trkpt>
        <trkpt lat="29.196013" lon="103.645147"><ele>497.909</ele><time>2026-01-16T23:29:48.000Z</time></trkpt>
        <trkpt lat="29.196035" lon="103.645155"><ele>496.7813</ele><time>2026-01-16T23:29:52.000Z</time></trkpt>
        <trkpt lat="29.196086" lon="103.645169"><ele>495.53717</ele><time>2026-01-16T23:29:57.000Z</time></trkpt>
        <trkpt lat="29.196138" lon="103.645181"><ele>495.4374</ele><time>2026-01-16T23:30:01.000Z</time></trkpt>
        <trkpt lat="29.196187" lon="103.645192"><ele>496.0863</ele><time>2026-01-16T23:30:05.000Z</time></trkpt>
        <trkpt lat="29.196242" lon="103.645211"><ele>496.2664</ele><time>2026-01-16T23:30:10.000Z</time></trkpt>
        <trkpt lat="29.196288" lon="103.645222"><ele>496.26447</ele><time>2026-01-16T23:30:14.000Z</time></trkpt>
        <trkpt lat="29.196339" lon="103.645242"><ele>495.7196</ele><time>2026-01-16T23:30:19.000Z</time></trkpt>
        <trkpt lat="29.196382" lon="103.64526"><ele>495.12567</ele><time>2026-01-16T23:30:23.000Z</time></trkpt>
        <trkpt lat="29.196429" lon="103.645274"><ele>494.95093</ele><time>2026-01-16T23:30:27.000Z</time></trkpt>
        <trkpt lat="29.196479" lon="103.645294"><ele>495.14093</ele><time>2026-01-16T23:30:31.000Z</time></trkpt>
        <trkpt lat="29.19653" lon="103.645308"><ele>495.22375</ele><time>2026-01-16T23:30:35.000Z</time></trkpt>
        <trkpt lat="29.196579" lon="103.64532"><ele>496.0485</ele><time>2026-01-16T23:30:39.000Z</time></trkpt>
        <trkpt lat="29.196628" lon="103.64533"><ele>496.58997</ele><time>2026-01-16T23:30:43.000Z</time></trkpt>
        <trkpt lat="29.196678" lon="103.645338"><ele>497.09738</ele><time>2026-01-16T23:30:47.000Z</time></trkpt>
        <trkpt lat="29.196726" lon="103.645346"><ele>497.33673</ele><time>2026-01-16T23:30:51.000Z</time></trkpt>
        <trkpt lat="29.196773" lon="103.645362"><ele>497.54224</ele><time>2026-01-16T23:30:55.000Z</time></trkpt>
        <trkpt lat="29.196816" lon="103.645384"><ele>497.82687</ele><time>2026-01-16T23:30:59.000Z</time></trkpt>
        <trkpt lat="29.196862" lon="103.645404"><ele>498.40353</ele><time>2026-01-16T23:31:03.000Z</time></trkpt>
        <trkpt lat="29.196903" lon="103.64542"><ele>498.4274</ele><time>2026-01-16T23:31:06.000Z</time></trkpt>
        <trkpt lat="29.196946" lon="103.645435"><ele>498.2939</ele><time>2026-01-16T23:31:09.000Z</time></trkpt>
        <trkpt lat="29.197004" lon="103.645454"><ele>497.99808</ele><time>2026-01-16T23:31:13.000Z</time></trkpt>
        <trkpt lat="29.197055" lon="103.645471"><ele>497.40976</ele><time>2026-01-16T23:31:17.000Z</time></trkpt>
        <trkpt lat="29.197099" lon="103.645483"><ele>496.81903</ele><time>2026-01-16T23:31:20.000Z</time></trkpt>
        <trkpt lat="29.197153" lon="103.645498"><ele>496.1758</ele><time>2026-01-16T23:31:24.000Z</time></trkpt>
        <trkpt lat="29.197207" lon="103.645509"><ele>495.5196</ele><time>2026-01-16T23:31:29.000Z</time></trkpt>
        <trkpt lat="29.197253" lon="103.645532"><ele>495.04474</ele><time>2026-01-16T23:31:33.000Z</time></trkpt>
        <trkpt lat="29.1973" lon="103.645553"><ele>494.80612</ele><time>2026-01-16T23:31:37.000Z</time></trkpt>
        <trkpt lat="29.197346" lon="103.645566"><ele>495.22827</ele><time>2026-01-16T23:31:41.000Z</time></trkpt>
        <trkpt lat="29.197394" lon="103.64558"><ele>495.39377</ele><time>2026-01-16T23:31:45.000Z</time></trkpt>
        <trkpt lat="29.197441" lon="103.645605"><ele>495.2208</ele><time>2026-01-16T23:31:49.000Z</time></trkpt>
        <trkpt lat="29.197488" lon="103.645642"><ele>495.01126</ele><time>2026-01-16T23:31:54.000Z</time></trkpt>
        <trkpt lat="29.197535" lon="103.645673"><ele>495.77127</ele><time>2026-01-16T23:32:00.000Z</time></trkpt>
        <trkpt lat="29.197579" lon="103.645694"><ele>496.54816</ele><time>2026-01-16T23:32:05.000Z</time></trkpt>
        <trkpt lat="29.19763" lon="103.645716"><ele>497.31152</ele><time>2026-01-16T23:32:11.000Z</time></trkpt>
        <trkpt lat="29.197674" lon="103.64573"><ele>498.7647</ele><time>2026-01-16T23:32:16.000Z</time></trkpt>
        <trkpt lat="29.19772" lon="103.645742"><ele>499.32614</ele><time>2026-01-16T23:32:21.000Z</time></trkpt>
        <trkpt lat="29.197763" lon="103.645752"><ele>499.2958</ele><time>2026-01-16T23:32:25.000Z</time></trkpt>
        <trkpt lat="29.197819" lon="103.645764"><ele>499.1903</ele><time>2026-01-16T23:32:31.000Z</time></trkpt>
        <trkpt lat="29.19787" lon="103.645787"><ele>498.7776</ele><time>2026-01-16T23:32:36.000Z</time></trkpt>
        <trkpt lat="29.19792" lon="103.645812"><ele>498.86182</ele><time>2026-01-16T23:32:41.000Z</time></trkpt>
        <trkpt lat="29.197966" lon="103.645831"><ele>498.73746</ele><time>2026-01-16T23:32:45.000Z</time></trkpt>
        <trkpt lat="29.198021" lon="103.645843"><ele>498.71494</ele><time>2026-01-16T23:32:50.000Z</time></trkpt>
        <trkpt lat="29.198075" lon="103.645864"><ele>498.2181</ele><time>2026-01-16T23:32:55.000Z</time></trkpt>
        <trkpt lat="29.19812" lon="103.645879"><ele>497.58572</ele><time>2026-01-16T23:32:59.000Z</time></trkpt>
        <trkpt lat="29.198174" lon="103.645895"><ele>498.43567</ele><time>2026-01-16T23:33:08.000Z</time></trkpt>
        <trkpt lat="29.198212" lon="103.645903"><ele>498.5922</ele><time>2026-01-16T23:33:12.000Z</time></trkpt>
        <trkpt lat="29.198255" lon="103.645919"><ele>498.68494</ele><time>2026-01-16T23:33:16.000Z</time></trkpt>
        <trkpt lat="29.198301" lon="103.645936"><ele>498.85468</ele><time>2026-01-16T23:33:20.000Z</time></trkpt>
        <trkpt lat="29.19835" lon="103.645956"><ele>499.18137</ele><time>2026-01-16T23:33:24.000Z</time></trkpt>
        <trkpt lat="29.198403" lon="103.645974"><ele>499.8512</ele><time>2026-01-16T23:33:28.000Z</time></trkpt>
        <trkpt lat="29.198456" lon="103.645988"><ele>501.09412</ele><time>2026-01-16T23:33:32.000Z</time></trkpt>
        <trkpt lat="29.198509" lon="103.646011"><ele>501.51807</ele><time>2026-01-16T23:33:36.000Z</time></trkpt>
        <trkpt lat="29.198562" lon="103.646029"><ele>501.7288</ele><time>2026-01-16T23:33:40.000Z</time></trkpt>
        <trkpt lat="29.198614" lon="103.646048"><ele>501.9618</ele><time>2026-01-16T23:33:44.000Z</time></trkpt>
        <trkpt lat="29.198664" lon="103.64607"><ele>501.98007</ele><time>2026-01-16T23:33:48.000Z</time></trkpt>
        <trkpt lat="29.198717" lon="103.64609"><ele>501.97922</ele><time>2026-01-16T23:33:52.000Z</time></trkpt>
        <trkpt lat="29.19877" lon="103.646111"><ele>501.72113</ele><time>2026-01-16T23:33:56.000Z</time></trkpt>
        <trkpt lat="29.19882" lon="103.646129"><ele>501.4717</ele><time>2026-01-16T23:34:00.000Z</time></trkpt>
        <trkpt lat="29.198871" lon="103.646138"><ele>501.9309</ele><time>2026-01-16T23:34:04.000Z</time></trkpt>
        <trkpt lat="29.198925" lon="103.646141"><ele>501.76358</ele><time>2026-01-16T23:34:08.000Z</time></trkpt>
        <trkpt lat="29.198978" lon="103.646146"><ele>501.5589</ele><time>2026-01-16T23:34:12.000Z</time></trkpt>
        <trkpt lat="29.199027" lon="103.646159"><ele>501.43234</ele><time>2026-01-16T23:34:16.000Z</time></trkpt>
        <trkpt lat="29.199089" lon="103.646182"><ele>501.468</ele><time>2026-01-16T23:34:21.000Z</time></trkpt>
        <trkpt lat="29.19914" lon="103.646208"><ele>501.70782</ele><time>2026-01-16T23:34:25.000Z</time></trkpt>
        <trkpt lat="29.199191" lon="103.646235"><ele>502.26462</ele><time>2026-01-16T23:34:29.000Z</time></trkpt>
        <trkpt lat="29.199239" lon="103.646264"><ele>503.41086</ele><time>2026-01-16T23:34:33.000Z</time></trkpt>
        <trkpt lat="29.199297" lon="103.646289"><ele>504.3864</ele><time>2026-01-16T23:34:38.000Z</time></trkpt>
        <trkpt lat="29.199353" lon="103.646301"><ele>505.3754</ele><time>2026-01-16T23:34:43.000Z</time></trkpt>
        <trkpt lat="29.199403" lon="103.646312"><ele>506.5183</ele><time>2026-01-16T23:34:47.000Z</time></trkpt>
        <trkpt lat="29.199451" lon="103.64633"><ele>507.22107</ele><time>2026-01-16T23:34:51.000Z</time></trkpt>
        <trkpt lat="29.1995" lon="103.646355"><ele>507.73178</ele><time>2026-01-16T23:34:55.000Z</time></trkpt>
      </trkseg>
  </trk>
</gpx>